<?xml version='1.0' encoding='UTF-8'?><gpx version="1.1" creator="JPX - https://github.com/jenetics/jpx" xmlns="http://www.topografix.com/GPX/1/1"><trk><trkseg><trkpt lat="41.87454" lon="12.4791017"><ele>23.0</ele><time>2026-04-08T05:55:40.771Z</time></trkpt><trkpt lat="41.874605" lon="12.4788233"><ele>23.0</ele><time>2026-04-08T05:55:42.771Z</time></trkpt><trkpt lat="41.8745833" lon="12.4787317"><ele>23.0</ele><time>2026-04-08T05:55:43.771Z</time></trkpt><trkpt lat="41.8745233" lon="12.478565"><ele>23.0</ele><time>2026-04-08T05:55:44.771Z</time></trkpt><trkpt lat="41.8744417" lon="12.478385"><ele>22.666666666666668</ele><time>2026-04-08T05:55:46.771Z</time></trkpt><trkpt lat="41.8744783" lon="12.4782867"><ele>22.333333333333336</ele><time>2026-04-08T05:55:48.771Z</time></trkpt><trkpt lat="41.874545" lon="12.47821"><ele>22.0</ele><time>2026-04-08T05:55:50.772Z</time></trkpt><trkpt lat="41.8745683" lon="12.478115"><ele>21.666666666666668</ele><time>2026-04-08T05:55:54.771Z</time></trkpt><trkpt lat="41.8746117" lon="12.478015"><ele>21.333333333333332</ele><time>2026-04-08T05:55:57.771Z</time></trkpt><trkpt lat="41.874685" lon="12.4779317"><ele>21.0</ele><time>2026-04-08T05:56:02.1Z</time></trkpt><trkpt lat="41.8747417" lon="12.4778417"><ele>20.5</ele><time>2026-04-08T05:56:06.1Z</time></trkpt><trkpt lat="41.8748217" lon="12.4777783"><ele>20.0</ele><time>2026-04-08T05:56:08.101Z</time></trkpt><trkpt lat="41.874925" lon="12.4776883"><ele>19.5</ele><time>2026-04-08T05:56:10.1Z</time></trkpt><trkpt lat="41.8749867" lon="12.4776467"><ele>19.0</ele><time>2026-04-08T05:56:11.101Z</time></trkpt><trkpt lat="41.8750667" lon="12.4776117"><ele>18.5</ele><time>2026-04-08T05:56:12.1Z</time></trkpt><trkpt lat="41.8751417" lon="12.477575"><ele>18.0</ele><time>2026-04-08T05:56:13.1Z</time></trkpt><trkpt lat="41.87521" lon="12.4775217"><ele>18.000000000000004</ele><time>2026-04-08T05:56:14.1Z</time></trkpt><trkpt lat="41.87528" lon="12.4774683"><ele>18.0</ele><time>2026-04-08T05:56:15.1Z</time></trkpt><trkpt lat="41.8753483" lon="12.477415"><ele>18.0</ele><time>2026-04-08T05:56:16.1Z</time></trkpt><trkpt lat="41.8754133" lon="12.4773683"><ele>18.0</ele><time>2026-04-08T05:56:17.1Z</time></trkpt><trkpt lat="41.8754733" lon="12.4773217"><ele>18.0</ele><time>2026-04-08T05:56:18.101Z</time></trkpt><trkpt lat="41.8755333" lon="12.477275"><ele>18.000000000000004</ele><time>2026-04-08T05:56:19.1Z</time></trkpt><trkpt lat="41.875595" lon="12.4772417"><ele>18.0</ele><time>2026-04-08T05:56:20.1Z</time></trkpt><trkpt lat="41.8756567" lon="12.4772183"><ele>18.0</ele><time>2026-04-08T05:56:21.1Z</time></trkpt><trkpt lat="41.8757233" lon="12.4771767"><ele>18.0</ele><time>2026-04-08T05:56:22.1Z</time></trkpt><trkpt lat="41.8757883" lon="12.4771317"><ele>18.0</ele><time>2026-04-08T05:56:23.1Z</time></trkpt><trkpt lat="41.8758567" lon="12.4770983"><ele>18.0</ele><time>2026-04-08T05:56:24.1Z</time></trkpt><trkpt lat="41.875925" lon="12.4770483"><ele>18.0</ele><time>2026-04-08T05:56:25.1Z</time></trkpt><trkpt lat="41.8759933" lon="12.4770083"><ele>18.0</ele><time>2026-04-08T05:56:26.1Z</time></trkpt><trkpt lat="41.8760617" lon="12.4769583"><ele>18.166666666666668</ele><time>2026-04-08T05:56:27.1Z</time></trkpt><trkpt lat="41.8761233" lon="12.476915"><ele>18.333333333333332</ele><time>2026-04-08T05:56:28.1Z</time></trkpt><trkpt lat="41.8761833" lon="12.4768733"><ele>18.5</ele><time>2026-04-08T05:56:29.1Z</time></trkpt><trkpt lat="41.87624" lon="12.4768267"><ele>18.666666666666664</ele><time>2026-04-08T05:56:30.1Z</time></trkpt><trkpt lat="41.8763467" lon="12.4767483"><ele>18.833333333333332</ele><time>2026-04-08T05:56:32.1Z</time></trkpt><trkpt lat="41.87642" lon="12.476705"><ele>19.0</ele><time>2026-04-08T05:56:34.1Z</time></trkpt><trkpt lat="41.876495" lon="12.4766133"><ele>19.0</ele><time>2026-04-08T05:56:55.1Z</time></trkpt><trkpt lat="41.8765683" lon="12.4765367"><ele>19.0</ele><time>2026-04-08T05:56:57.1Z</time></trkpt><trkpt lat="41.8766183" lon="12.4764817"><ele>19.0</ele><time>2026-04-08T05:56:58.1Z</time></trkpt><trkpt lat="41.8766867" lon="12.4764217"><ele>19.0</ele><time>2026-04-08T05:56:59.101Z</time></trkpt><trkpt lat="41.8767583" lon="12.4763617"><ele>19.0</ele><time>2026-04-08T05:57:00.1Z</time></trkpt><trkpt lat="41.8768267" lon="12.4763083"><ele>19.0</ele><time>2026-04-08T05:57:01.1Z</time></trkpt><trkpt lat="41.8769017" lon="12.4762633"><ele>18.666666666666664</ele><time>2026-04-08T05:57:02.1Z</time></trkpt><trkpt lat="41.8769717" lon="12.4762183"><ele>18.333333333333332</ele><time>2026-04-08T05:57:03.1Z</time></trkpt><trkpt lat="41.877045" lon="12.47617"><ele>18.0</ele><time>2026-04-08T05:57:04.1Z</time></trkpt><trkpt lat="41.8771133" lon="12.4761217"><ele>17.666666666666668</ele><time>2026-04-08T05:57:05.1Z</time></trkpt><trkpt lat="41.87718" lon="12.47608"><ele>17.333333333333336</ele><time>2026-04-08T05:57:06.101Z</time></trkpt><trkpt lat="41.8772733" lon="12.4760167"><ele>17.0</ele><time>2026-04-08T05:57:08.1Z</time></trkpt><trkpt lat="41.8774383" lon="12.4759283"><ele>17.0</ele><time>2026-04-08T05:57:59.1Z</time></trkpt><trkpt lat="41.8775117" lon="12.4758683"><ele>17.0</ele><time>2026-04-08T05:58:02.101Z</time></trkpt><trkpt lat="41.8775767" lon="12.4758283"><ele>17.0</ele><time>2026-04-08T05:58:04.101Z</time></trkpt><trkpt lat="41.87764" lon="12.475785"><ele>17.0</ele><time>2026-04-08T05:58:07.101Z</time></trkpt><trkpt lat="41.87771" lon="12.4756583"><ele>17.0</ele><time>2026-04-08T05:58:18.1Z</time></trkpt><trkpt lat="41.8777533" lon="12.4755633"><ele>17.0</ele><time>2026-04-08T05:58:21.1Z</time></trkpt><trkpt lat="41.8778083" lon="12.47551"><ele>17.4</ele><time>2026-04-08T05:58:23.1Z</time></trkpt><trkpt lat="41.8778683" lon="12.475445"><ele>17.799999999999997</ele><time>2026-04-08T05:58:25.1Z</time></trkpt><trkpt lat="41.8779517" lon="12.4754"><ele>18.2</ele><time>2026-04-08T05:58:27.101Z</time></trkpt><trkpt lat="41.8780133" lon="12.4753567"><ele>18.599999999999998</ele><time>2026-04-08T05:58:29.1Z</time></trkpt><trkpt lat="41.8781667" lon="12.4752867"><ele>19.0</ele><time>2026-04-08T05:58:51.1Z</time></trkpt><trkpt lat="41.8782333" lon="12.4752217"><ele>19.2</ele><time>2026-04-08T05:58:53.1Z</time></trkpt><trkpt lat="41.8783433" lon="12.475135"><ele>19.4</ele><time>2026-04-08T05:58:55.1Z</time></trkpt><trkpt lat="41.8784067" lon="12.475095"><ele>19.6</ele><time>2026-04-08T05:58:56.1Z</time></trkpt><trkpt lat="41.8785183" lon="12.475035"><ele>19.8</ele><time>2026-04-08T05:58:58.1Z</time></trkpt><trkpt lat="41.8786233" lon="12.4749483"><ele>20.0</ele><time>2026-04-08T05:59:00.1Z</time></trkpt><trkpt lat="41.8786817" lon="12.4749117"><ele>20.6</ele><time>2026-04-08T05:59:01.1Z</time></trkpt><trkpt lat="41.8787817" lon="12.4748317"><ele>21.2</ele><time>2026-04-08T05:59:03.1Z</time></trkpt><trkpt lat="41.8788867" lon="12.4747617"><ele>21.799999999999997</ele><time>2026-04-08T05:59:05.1Z</time></trkpt><trkpt lat="41.8789767" lon="12.4747"><ele>22.4</ele><time>2026-04-08T05:59:07.1Z</time></trkpt><trkpt lat="41.8790367" lon="12.4746667"><ele>23.0</ele><time>2026-04-08T05:59:09.1Z</time></trkpt><trkpt lat="41.879115" lon="12.474635"><ele>23.0</ele><time>2026-04-08T05:59:12.1Z</time></trkpt><trkpt lat="41.8791917" lon="12.474575"><ele>23.0</ele><time>2026-04-08T05:59:15.1Z</time></trkpt><trkpt lat="41.87928" lon="12.4745033"><ele>23.0</ele><time>2026-04-08T05:59:17.1Z</time></trkpt><trkpt lat="41.8793733" lon="12.4744417"><ele>23.0</ele><time>2026-04-08T05:59:19.1Z</time></trkpt><trkpt lat="41.8794533" lon="12.474395"><ele>23.0</ele><time>2026-04-08T05:59:21.1Z</time></trkpt><trkpt lat="41.8795683" lon="12.4743767"><ele>23.0</ele><time>2026-04-08T05:59:23.1Z</time></trkpt><trkpt lat="41.8796433" lon="12.47434"><ele>23.0</ele><time>2026-04-08T05:59:25.1Z</time></trkpt><trkpt lat="41.8797117" lon="12.474285"><ele>23.0</ele><time>2026-04-08T05:59:27.1Z</time></trkpt><trkpt lat="41.87978" lon="12.4742383"><ele>23.0</ele><time>2026-04-08T05:59:29.1Z</time></trkpt><trkpt lat="41.879845" lon="12.4741667"><ele>23.0</ele><time>2026-04-08T05:59:31.1Z</time></trkpt><trkpt lat="41.8799267" lon="12.47407"><ele>23.0</ele><time>2026-04-08T05:59:33.1Z</time></trkpt><trkpt lat="41.8800017" lon="12.4739683"><ele>23.0</ele><time>2026-04-08T05:59:35.101Z</time></trkpt><trkpt lat="41.8800617" lon="12.4738867"><ele>23.0</ele><time>2026-04-08T05:59:37.1Z</time></trkpt><trkpt lat="41.8801983" lon="12.4737033"><ele>23.0</ele><time>2026-04-08T06:00:06.1Z</time></trkpt><trkpt lat="41.880265" lon="12.4736183"><ele>23.0</ele><time>2026-04-08T06:00:08.1Z</time></trkpt><trkpt lat="41.8803267" lon="12.4735217"><ele>24.0</ele><time>2026-04-08T06:00:10.101Z</time></trkpt><trkpt lat="41.88039" lon="12.47345"><ele>25.0</ele><time>2026-04-08T06:00:12.101Z</time></trkpt><trkpt lat="41.8804433" lon="12.473375"><ele>26.0</ele><time>2026-04-08T06:00:14.1Z</time></trkpt><trkpt lat="41.8804967" lon="12.4732867"><ele>27.0</ele><time>2026-04-08T06:00:16.1Z</time></trkpt><trkpt lat="41.88054" lon="12.4732167"><ele>27.999999999999996</ele><time>2026-04-08T06:00:18.1Z</time></trkpt><trkpt lat="41.8805617" lon="12.4731333"><ele>29.0</ele><time>2026-04-08T06:00:22.1Z</time></trkpt><trkpt lat="41.8806217" lon="12.473045"><ele>28.999999999999996</ele><time>2026-04-08T06:00:40.1Z</time></trkpt><trkpt lat="41.8806733" lon="12.47299"><ele>29.0</ele><time>2026-04-08T06:00:42.1Z</time></trkpt><trkpt lat="41.88073" lon="12.4729367"><ele>29.0</ele><time>2026-04-08T06:00:44.1Z</time></trkpt><trkpt lat="41.8807883" lon="12.4728867"><ele>29.0</ele><time>2026-04-08T06:00:46.1Z</time></trkpt><trkpt lat="41.8808667" lon="12.4728933"><ele>28.999999999999996</ele><time>2026-04-08T06:00:49.1Z</time></trkpt><trkpt lat="41.88095" lon="12.4729633"><ele>29.0</ele><time>2026-04-08T06:00:52.1Z</time></trkpt><trkpt lat="41.8810367" lon="12.473095"><ele>26.833333333333332</ele><time>2026-04-08T06:00:54.1Z</time></trkpt><trkpt lat="41.881085" lon="12.4731783"><ele>24.666666666666664</ele><time>2026-04-08T06:00:55.101Z</time></trkpt><trkpt lat="41.881135" lon="12.4732717"><ele>22.5</ele><time>2026-04-08T06:00:56.101Z</time></trkpt><trkpt lat="41.8811817" lon="12.47337"><ele>20.333333333333332</ele><time>2026-04-08T06:00:57.1Z</time></trkpt><trkpt lat="41.8812317" lon="12.47347"><ele>18.166666666666664</ele><time>2026-04-08T06:00:58.101Z</time></trkpt><trkpt lat="41.8812867" lon="12.473575"><ele>16.0</ele><time>2026-04-08T06:00:59.1Z</time></trkpt><trkpt lat="41.8813283" lon="12.4736833"><ele>17.8</ele><time>2026-04-08T06:01:00.1Z</time></trkpt><trkpt lat="41.8813867" lon="12.4737933"><ele>19.6</ele><time>2026-04-08T06:01:01.1Z</time></trkpt><trkpt lat="41.881445" lon="12.4738917"><ele>21.4</ele><time>2026-04-08T06:01:02.1Z</time></trkpt><trkpt lat="41.8815" lon="12.47399"><ele>23.2</ele><time>2026-04-08T06:01:03.1Z</time></trkpt><trkpt lat="41.881565" lon="12.4740833"><ele>25.0</ele><time>2026-04-08T06:01:04.1Z</time></trkpt><trkpt lat="41.8816217" lon="12.4741717"><ele>25.000000000000004</ele><time>2026-04-08T06:01:05.1Z</time></trkpt><trkpt lat="41.8816817" lon="12.4742483"><ele>25.0</ele><time>2026-04-08T06:01:06.1Z</time></trkpt><trkpt lat="41.8817317" lon="12.4743133"><ele>25.0</ele><time>2026-04-08T06:01:07.1Z</time></trkpt><trkpt lat="41.881785" lon="12.47437"><ele>25.0</ele><time>2026-04-08T06:01:08.1Z</time></trkpt><trkpt lat="41.8818417" lon="12.47442"><ele>25.000000000000004</ele><time>2026-04-08T06:01:09.101Z</time></trkpt><trkpt lat="41.88192" lon="12.4745067"><ele>25.0</ele><time>2026-04-08T06:01:11.1Z</time></trkpt><trkpt lat="41.8819767" lon="12.47457"><ele>23.8</ele><time>2026-04-08T06:01:13.1Z</time></trkpt><trkpt lat="41.8820733" lon="12.47464"><ele>22.6</ele><time>2026-04-08T06:01:33.1Z</time></trkpt><trkpt lat="41.88213" lon="12.47471"><ele>21.4</ele><time>2026-04-08T06:01:35.1Z</time></trkpt><trkpt lat="41.882205" lon="12.4747917"><ele>20.2</ele><time>2026-04-08T06:01:37.1Z</time></trkpt><trkpt lat="41.8822667" lon="12.4748867"><ele>19.0</ele><time>2026-04-08T06:01:39.1Z</time></trkpt><trkpt lat="41.8823283" lon="12.47499"><ele>19.0</ele><time>2026-04-08T06:01:41.101Z</time></trkpt><trkpt lat="41.8824067" lon="12.475085"><ele>19.0</ele><time>2026-04-08T06:01:43.1Z</time></trkpt><trkpt lat="41.8824667" lon="12.4751767"><ele>19.0</ele><time>2026-04-08T06:01:45.1Z</time></trkpt><trkpt lat="41.8825217" lon="12.4752567"><ele>19.0</ele><time>2026-04-08T06:01:47.1Z</time></trkpt><trkpt lat="41.8825817" lon="12.47534"><ele>19.0</ele><time>2026-04-08T06:01:49.1Z</time></trkpt><trkpt lat="41.8826383" lon="12.47543"><ele>18.0</ele><time>2026-04-08T06:01:51.1Z</time></trkpt><trkpt lat="41.88268" lon="12.4755"><ele>17.0</ele><time>2026-04-08T06:01:53.1Z</time></trkpt><trkpt lat="41.8827633" lon="12.475635"><ele>15.999999999999998</ele><time>2026-04-08T06:02:46.1Z</time></trkpt><trkpt lat="41.8828283" lon="12.4756767"><ele>15.0</ele><time>2026-04-08T06:02:48.101Z</time></trkpt><trkpt lat="41.8829" lon="12.4757533"><ele>14.0</ele><time>2026-04-08T06:02:50.101Z</time></trkpt><trkpt lat="41.8829767" lon="12.4758517"><ele>14.0</ele><time>2026-04-08T06:02:52.101Z</time></trkpt><trkpt lat="41.8830467" lon="12.47596"><ele>14.0</ele><time>2026-04-08T06:02:54.1Z</time></trkpt><trkpt lat="41.8831317" lon="12.4760717"><ele>14.0</ele><time>2026-04-08T06:02:56.1Z</time></trkpt><trkpt lat="41.883205" lon="12.4761833"><ele>14.0</ele><time>2026-04-08T06:02:58.1Z</time></trkpt><trkpt lat="41.8832883" lon="12.4762983"><ele>14.166666666666668</ele><time>2026-04-08T06:03:00.1Z</time></trkpt><trkpt lat="41.8833433" lon="12.4763533"><ele>14.333333333333334</ele><time>2026-04-08T06:03:01.101Z</time></trkpt><trkpt lat="41.8834017" lon="12.47643"><ele>14.5</ele><time>2026-04-08T06:03:02.1Z</time></trkpt><trkpt lat="41.8834633" lon="12.4765017"><ele>14.666666666666668</ele><time>2026-04-08T06:03:03.1Z</time></trkpt><trkpt lat="41.8835333" lon="12.4765817"><ele>14.833333333333334</ele><time>2026-04-08T06:03:04.1Z</time></trkpt><trkpt lat="41.8836017" lon="12.4766717"><ele>15.0</ele><time>2026-04-08T06:03:05.1Z</time></trkpt><trkpt lat="41.88367" lon="12.4767717"><ele>15.0</ele><time>2026-04-08T06:03:06.1Z</time></trkpt><trkpt lat="41.883735" lon="12.4768767"><ele>15.0</ele><time>2026-04-08T06:03:07.1Z</time></trkpt><trkpt lat="41.8838117" lon="12.47698"><ele>15.0</ele><time>2026-04-08T06:03:08.1Z</time></trkpt><trkpt lat="41.8839083" lon="12.477075"><ele>15.0</ele><time>2026-04-08T06:03:09.1Z</time></trkpt><trkpt lat="41.8839983" lon="12.4771833"><ele>14.75</ele><time>2026-04-08T06:03:10.1Z</time></trkpt><trkpt lat="41.8840767" lon="12.4772933"><ele>14.5</ele><time>2026-04-08T06:03:11.1Z</time></trkpt><trkpt lat="41.8841617" lon="12.4774"><ele>14.25</ele><time>2026-04-08T06:03:12.1Z</time></trkpt><trkpt lat="41.8842433" lon="12.47751"><ele>14.0</ele><time>2026-04-08T06:03:13.1Z</time></trkpt><trkpt lat="41.88432" lon="12.4776217"><ele>14.0</ele><time>2026-04-08T06:03:14.1Z</time></trkpt><trkpt lat="41.8844067" lon="12.4777383"><ele>14.0</ele><time>2026-04-08T06:03:15.1Z</time></trkpt><trkpt lat="41.8845017" lon="12.4778517"><ele>14.0</ele><time>2026-04-08T06:03:16.1Z</time></trkpt><trkpt lat="41.8845967" lon="12.47796"><ele>14.0</ele><time>2026-04-08T06:03:17.1Z</time></trkpt><trkpt lat="41.88469" lon="12.4780717"><ele>16.0</ele><time>2026-04-08T06:03:18.101Z</time></trkpt><trkpt lat="41.8847783" lon="12.47818"><ele>18.0</ele><time>2026-04-08T06:03:19.1Z</time></trkpt><trkpt lat="41.88487" lon="12.47829"><ele>20.0</ele><time>2026-04-08T06:03:20.1Z</time></trkpt><trkpt lat="41.8849583" lon="12.4783983"><ele>22.0</ele><time>2026-04-08T06:03:21.1Z</time></trkpt><trkpt lat="41.8850433" lon="12.47851"><ele>22.25</ele><time>2026-04-08T06:03:22.1Z</time></trkpt><trkpt lat="41.8851417" lon="12.47863"><ele>22.5</ele><time>2026-04-08T06:03:23.1Z</time></trkpt><trkpt lat="41.8852333" lon="12.47874"><ele>22.75</ele><time>2026-04-08T06:03:24.1Z</time></trkpt><trkpt lat="41.8853283" lon="12.4788517"><ele>23.0</ele><time>2026-04-08T06:03:25.1Z</time></trkpt><trkpt lat="41.8854233" lon="12.47895"><ele>23.0</ele><time>2026-04-08T06:03:26.1Z</time></trkpt><trkpt lat="41.885515" lon="12.4790483"><ele>23.0</ele><time>2026-04-08T06:03:27.1Z</time></trkpt><trkpt lat="41.8856067" lon="12.479135"><ele>23.0</ele><time>2026-04-08T06:03:28.1Z</time></trkpt><trkpt lat="41.8856917" lon="12.47922"><ele>23.0</ele><time>2026-04-08T06:03:29.1Z</time></trkpt><trkpt lat="41.8857767" lon="12.47929"><ele>23.0</ele><time>2026-04-08T06:03:30.1Z</time></trkpt><trkpt lat="41.8858567" lon="12.4793583"><ele>22.833333333333336</ele><time>2026-04-08T06:03:31.101Z</time></trkpt><trkpt lat="41.8859317" lon="12.4794267"><ele>22.666666666666668</ele><time>2026-04-08T06:03:32.1Z</time></trkpt><trkpt lat="41.8860067" lon="12.47949"><ele>22.5</ele><time>2026-04-08T06:03:33.1Z</time></trkpt><trkpt lat="41.8860733" lon="12.4795483"><ele>22.333333333333332</ele><time>2026-04-08T06:03:34.1Z</time></trkpt><trkpt lat="41.8861367" lon="12.4795983"><ele>22.166666666666664</ele><time>2026-04-08T06:03:35.1Z</time></trkpt><trkpt lat="41.8862033" lon="12.47965"><ele>22.0</ele><time>2026-04-08T06:03:36.1Z</time></trkpt><trkpt lat="41.8862967" lon="12.47974"><ele>22.0</ele><time>2026-04-08T06:03:38.1Z</time></trkpt><trkpt lat="41.8863483" lon="12.4798033"><ele>22.0</ele><time>2026-04-08T06:03:40.1Z</time></trkpt><trkpt lat="41.8864317" lon="12.4799383"><ele>22.0</ele><time>2026-04-08T06:04:11.1Z</time></trkpt><trkpt lat="41.8864933" lon="12.4800467"><ele>22.0</ele><time>2026-04-08T06:04:14.101Z</time></trkpt><trkpt lat="41.88656" lon="12.48013"><ele>22.0</ele><time>2026-04-08T06:04:16.1Z</time></trkpt><trkpt lat="41.88664" lon="12.4801983"><ele>22.0</ele><time>2026-04-08T06:04:18.1Z</time></trkpt><trkpt lat="41.8867367" lon="12.4802717"><ele>22.0</ele><time>2026-04-08T06:04:20.1Z</time></trkpt><trkpt lat="41.8868633" lon="12.4803567"><ele>22.0</ele><time>2026-04-08T06:04:22.101Z</time></trkpt><trkpt lat="41.8869333" lon="12.4804033"><ele>22.0</ele><time>2026-04-08T06:04:23.1Z</time></trkpt><trkpt lat="41.88701" lon="12.48045"><ele>22.0</ele><time>2026-04-08T06:04:24.1Z</time></trkpt><trkpt lat="41.8870817" lon="12.4805067"><ele>22.0</ele><time>2026-04-08T06:04:25.101Z</time></trkpt><trkpt lat="41.8871483" lon="12.480555"><ele>22.0</ele><time>2026-04-08T06:04:26.1Z</time></trkpt><trkpt lat="41.8872083" lon="12.4806017"><ele>22.0</ele><time>2026-04-08T06:04:27.1Z</time></trkpt><trkpt lat="41.88727" lon="12.4806483"><ele>22.0</ele><time>2026-04-08T06:04:28.1Z</time></trkpt><trkpt lat="41.88733" lon="12.4806867"><ele>22.0</ele><time>2026-04-08T06:04:29.101Z</time></trkpt><trkpt lat="41.8873883" lon="12.4807233"><ele>22.0</ele><time>2026-04-08T06:04:30.1Z</time></trkpt><trkpt lat="41.88748" lon="12.48079"><ele>22.0</ele><time>2026-04-08T06:04:32.1Z</time></trkpt><trkpt lat="41.8875533" lon="12.4808433"><ele>22.0</ele><time>2026-04-08T06:04:34.1Z</time></trkpt><trkpt lat="41.8876133" lon="12.480895"><ele>22.0</ele><time>2026-04-08T06:04:37.1Z</time></trkpt><trkpt lat="41.8877217" lon="12.4809583"><ele>22.0</ele><time>2026-04-08T06:06:03.1Z</time></trkpt><trkpt lat="41.8877967" lon="12.4809733"><ele>22.0</ele><time>2026-04-08T06:06:05.101Z</time></trkpt><trkpt lat="41.887935" lon="12.4810383"><ele>21.6</ele><time>2026-04-08T06:06:08.101Z</time></trkpt><trkpt lat="41.8880317" lon="12.481095"><ele>21.200000000000003</ele><time>2026-04-08T06:06:10.1Z</time></trkpt><trkpt lat="41.8881167" lon="12.4811533"><ele>20.8</ele><time>2026-04-08T06:06:12.1Z</time></trkpt><trkpt lat="41.888195" lon="12.4812317"><ele>20.4</ele><time>2026-04-08T06:06:14.1Z</time></trkpt><trkpt lat="41.8882883" lon="12.4812983"><ele>20.0</ele><time>2026-04-08T06:06:16.101Z</time></trkpt><trkpt lat="41.8883683" lon="12.481355"><ele>20.5</ele><time>2026-04-08T06:06:18.1Z</time></trkpt><trkpt lat="41.8884517" lon="12.4814067"><ele>21.0</ele><time>2026-04-08T06:06:20.1Z</time></trkpt><trkpt lat="41.8885267" lon="12.48145"><ele>21.5</ele><time>2026-04-08T06:06:22.1Z</time></trkpt><trkpt lat="41.8887233" lon="12.4814717"><ele>22.0</ele><time>2026-04-08T06:06:48.1Z</time></trkpt><trkpt lat="41.8888283" lon="12.481435"><ele>22.0</ele><time>2026-04-08T06:06:50.1Z</time></trkpt><trkpt lat="41.88894" lon="12.4814017"><ele>22.0</ele><time>2026-04-08T06:06:52.1Z</time></trkpt><trkpt lat="41.8890067" lon="12.4813833"><ele>22.0</ele><time>2026-04-08T06:06:53.1Z</time></trkpt><trkpt lat="41.8890767" lon="12.4813483"><ele>22.0</ele><time>2026-04-08T06:06:54.1Z</time></trkpt><trkpt lat="41.88914" lon="12.4813117"><ele>22.0</ele><time>2026-04-08T06:06:55.1Z</time></trkpt><trkpt lat="41.8892133" lon="12.4812767"><ele>22.0</ele><time>2026-04-08T06:06:56.1Z</time></trkpt><trkpt lat="41.8892933" lon="12.4812433"><ele>21.857142857142858</ele><time>2026-04-08T06:06:57.1Z</time></trkpt><trkpt lat="41.8893683" lon="12.4812133"><ele>21.714285714285715</ele><time>2026-04-08T06:06:58.101Z</time></trkpt><trkpt lat="41.8894467" lon="12.4811783"><ele>21.57142857142857</ele><time>2026-04-08T06:06:59.1Z</time></trkpt><trkpt lat="41.8895183" lon="12.4811383"><ele>21.42857142857143</ele><time>2026-04-08T06:07:00.1Z</time></trkpt><trkpt lat="41.8895833" lon="12.4811067"><ele>21.285714285714285</ele><time>2026-04-08T06:07:01.1Z</time></trkpt><trkpt lat="41.88965" lon="12.481075"><ele>21.142857142857142</ele><time>2026-04-08T06:07:02.1Z</time></trkpt><trkpt lat="41.88971" lon="12.4810417"><ele>21.0</ele><time>2026-04-08T06:07:03.101Z</time></trkpt><trkpt lat="41.8898033" lon="12.481005"><ele>21.0</ele><time>2026-04-08T06:07:05.1Z</time></trkpt><trkpt lat="41.8898867" lon="12.48097"><ele>21.0</ele><time>2026-04-08T06:07:07.101Z</time></trkpt><trkpt lat="41.8899767" lon="12.48092"><ele>21.0</ele><time>2026-04-08T06:07:09.1Z</time></trkpt><trkpt lat="41.89005" lon="12.4808683"><ele>21.0</ele><time>2026-04-08T06:07:11.1Z</time></trkpt><trkpt lat="41.8901117" lon="12.480835"><ele>21.0</ele><time>2026-04-08T06:07:13.1Z</time></trkpt><trkpt lat="41.89018" lon="12.4807733"><ele>21.0</ele><time>2026-04-08T06:07:39.1Z</time></trkpt><trkpt lat="41.89023" lon="12.4806917"><ele>20.6</ele><time>2026-04-08T06:07:42.1Z</time></trkpt><trkpt lat="41.890285" lon="12.480635"><ele>20.200000000000003</ele><time>2026-04-08T06:07:45.1Z</time></trkpt><trkpt lat="41.8903617" lon="12.48059"><ele>19.799999999999997</ele><time>2026-04-08T06:07:51.1Z</time></trkpt><trkpt lat="41.890515" lon="12.4805833"><ele>19.4</ele><time>2026-04-08T06:07:55.1Z</time></trkpt><trkpt lat="41.8906067" lon="12.48055"><ele>19.0</ele><time>2026-04-08T06:07:57.1Z</time></trkpt><trkpt lat="41.890705" lon="12.480515"><ele>19.0</ele><time>2026-04-08T06:07:59.1Z</time></trkpt><trkpt lat="41.8908067" lon="12.48047"><ele>19.0</ele><time>2026-04-08T06:08:01.1Z</time></trkpt><trkpt lat="41.8909083" lon="12.4804317"><ele>19.0</ele><time>2026-04-08T06:08:03.1Z</time></trkpt><trkpt lat="41.8910083" lon="12.48042"><ele>19.0</ele><time>2026-04-08T06:08:05.1Z</time></trkpt><trkpt lat="41.8911217" lon="12.4804083"><ele>19.0</ele><time>2026-04-08T06:08:07.1Z</time></trkpt><trkpt lat="41.8912317" lon="12.4803917"><ele>20.2</ele><time>2026-04-08T06:08:09.1Z</time></trkpt><trkpt lat="41.8913367" lon="12.4803617"><ele>21.4</ele><time>2026-04-08T06:08:11.1Z</time></trkpt><trkpt lat="41.8914233" lon="12.48032"><ele>22.6</ele><time>2026-04-08T06:08:13.101Z</time></trkpt><trkpt lat="41.891525" lon="12.4803"><ele>23.8</ele><time>2026-04-08T06:08:15.1Z</time></trkpt><trkpt lat="41.8916267" lon="12.48029"><ele>25.0</ele><time>2026-04-08T06:08:17.1Z</time></trkpt><trkpt lat="41.8917333" lon="12.4802867"><ele>24.75</ele><time>2026-04-08T06:08:19.1Z</time></trkpt><trkpt lat="41.8918483" lon="12.4802967"><ele>24.5</ele><time>2026-04-08T06:08:21.101Z</time></trkpt><trkpt lat="41.8919683" lon="12.4803333"><ele>24.25</ele><time>2026-04-08T06:08:23.1Z</time></trkpt><trkpt lat="41.8920783" lon="12.4803817"><ele>24.0</ele><time>2026-04-08T06:08:25.1Z</time></trkpt><trkpt lat="41.8921833" lon="12.4804283"><ele>25.0</ele><time>2026-04-08T06:08:27.101Z</time></trkpt><trkpt lat="41.8922833" lon="12.4804833"><ele>26.0</ele><time>2026-04-08T06:08:29.1Z</time></trkpt><trkpt lat="41.8923967" lon="12.4805233"><ele>27.0</ele><time>2026-04-08T06:08:31.1Z</time></trkpt><trkpt lat="41.89246" lon="12.480535"><ele>28.0</ele><time>2026-04-08T06:08:32.1Z</time></trkpt><trkpt lat="41.89252" lon="12.480565"><ele>29.0</ele><time>2026-04-08T06:08:33.1Z</time></trkpt><trkpt lat="41.892585" lon="12.4806067"><ele>30.0</ele><time>2026-04-08T06:08:34.1Z</time></trkpt><trkpt lat="41.89264" lon="12.48066"><ele>30.285714285714285</ele><time>2026-04-08T06:08:35.101Z</time></trkpt><trkpt lat="41.8926917" lon="12.4807083"><ele>30.57142857142857</ele><time>2026-04-08T06:08:36.101Z</time></trkpt><trkpt lat="41.89275" lon="12.4807583"><ele>30.857142857142854</ele><time>2026-04-08T06:08:37.1Z</time></trkpt><trkpt lat="41.8928067" lon="12.4808283"><ele>31.142857142857142</ele><time>2026-04-08T06:08:38.1Z</time></trkpt><trkpt lat="41.8928483" lon="12.4808983"><ele>31.428571428571423</ele><time>2026-04-08T06:08:39.1Z</time></trkpt><trkpt lat="41.892895" lon="12.4809633"><ele>31.71428571428571</ele><time>2026-04-08T06:08:40.101Z</time></trkpt><trkpt lat="41.892945" lon="12.4810267"><ele>32.0</ele><time>2026-04-08T06:08:41.1Z</time></trkpt><trkpt lat="41.8930267" lon="12.4811483"><ele>31.999999999999996</ele><time>2026-04-08T06:08:43.1Z</time></trkpt><trkpt lat="41.8931067" lon="12.4812367"><ele>32.0</ele><time>2026-04-08T06:08:45.1Z</time></trkpt><trkpt lat="41.8931733" lon="12.48132"><ele>32.0</ele><time>2026-04-08T06:08:47.1Z</time></trkpt><trkpt lat="41.893235" lon="12.4813767"><ele>32.0</ele><time>2026-04-08T06:08:49.1Z</time></trkpt><trkpt lat="41.8933083" lon="12.4814317"><ele>31.999999999999996</ele><time>2026-04-08T06:08:52.101Z</time></trkpt><trkpt lat="41.8933867" lon="12.4815017"><ele>32.0</ele><time>2026-04-08T06:08:55.1Z</time></trkpt><trkpt lat="41.893445" lon="12.4815583"><ele>32.166666666666664</ele><time>2026-04-08T06:08:57.1Z</time></trkpt><trkpt lat="41.8934983" lon="12.4816133"><ele>32.33333333333333</ele><time>2026-04-08T06:08:59.1Z</time></trkpt><trkpt lat="41.8935533" lon="12.481655"><ele>32.5</ele><time>2026-04-08T06:09:04.1Z</time></trkpt><trkpt lat="41.893595" lon="12.4817267"><ele>32.666666666666664</ele><time>2026-04-08T06:09:24.101Z</time></trkpt><trkpt lat="41.89369" lon="12.4817817"><ele>32.833333333333336</ele><time>2026-04-08T06:09:27.101Z</time></trkpt><trkpt lat="41.8937717" lon="12.481785"><ele>33.0</ele><time>2026-04-08T06:09:29.1Z</time></trkpt><trkpt lat="41.893925" lon="12.4817817"><ele>33.0</ele><time>2026-04-08T06:09:33.1Z</time></trkpt><trkpt lat="41.8940217" lon="12.4818"><ele>33.0</ele><time>2026-04-08T06:09:43.1Z</time></trkpt><trkpt lat="41.894095" lon="12.48182"><ele>33.0</ele><time>2026-04-08T06:09:45.1Z</time></trkpt><trkpt lat="41.8941733" lon="12.48186"><ele>33.0</ele><time>2026-04-08T06:09:47.101Z</time></trkpt><trkpt lat="41.8942383" lon="12.4818867"><ele>33.0</ele><time>2026-04-08T06:09:49.101Z</time></trkpt><trkpt lat="41.8942967" lon="12.48192"><ele>33.0</ele><time>2026-04-08T06:09:51.1Z</time></trkpt><trkpt lat="41.8943567" lon="12.4819517"><ele>31.57142857142857</ele><time>2026-04-08T06:09:55.101Z</time></trkpt><trkpt lat="41.89443" lon="12.4819767"><ele>30.142857142857146</ele><time>2026-04-08T06:09:59.1Z</time></trkpt><trkpt lat="41.894505" lon="12.4819667"><ele>28.714285714285715</ele><time>2026-04-08T06:10:03.1Z</time></trkpt><trkpt lat="41.8945683" lon="12.4819733"><ele>27.285714285714285</ele><time>2026-04-08T06:10:06.1Z</time></trkpt><trkpt lat="41.8946317" lon="12.4819867"><ele>25.857142857142854</ele><time>2026-04-08T06:10:10.1Z</time></trkpt><trkpt lat="41.8946967" lon="12.4820167"><ele>24.42857142857143</ele><time>2026-04-08T06:10:15.1Z</time></trkpt><trkpt lat="41.894765" lon="12.4820267"><ele>23.0</ele><time>2026-04-08T06:10:19.1Z</time></trkpt><trkpt lat="41.8948283" lon="12.48202"><ele>23.0</ele><time>2026-04-08T06:10:22.1Z</time></trkpt><trkpt lat="41.8949033" lon="12.48203"><ele>23.0</ele><time>2026-04-08T06:10:25.1Z</time></trkpt><trkpt lat="41.8949717" lon="12.4820333"><ele>23.0</ele><time>2026-04-08T06:10:28.1Z</time></trkpt><trkpt lat="41.8951133" lon="12.4820367"><ele>23.0</ele><time>2026-04-08T06:10:36.1Z</time></trkpt><trkpt lat="41.8952383" lon="12.482085"><ele>23.0</ele><time>2026-04-08T06:11:16.1Z</time></trkpt><trkpt lat="41.895325" lon="12.4821133"><ele>23.599999999999998</ele><time>2026-04-08T06:11:19.1Z</time></trkpt><trkpt lat="41.895385" lon="12.4821483"><ele>24.2</ele><time>2026-04-08T06:11:22.101Z</time></trkpt><trkpt lat="41.8954833" lon="12.4822033"><ele>24.8</ele><time>2026-04-08T06:13:23.1Z</time></trkpt><trkpt lat="41.8956083" lon="12.4822483"><ele>25.4</ele><time>2026-04-08T06:13:41.101Z</time></trkpt><trkpt lat="41.8956733" lon="12.4822367"><ele>26.0</ele><time>2026-04-08T06:13:45.101Z</time></trkpt><trkpt lat="41.8957517" lon="12.4821983"><ele>26.0</ele><time>2026-04-08T06:13:49.1Z</time></trkpt><trkpt lat="41.89581" lon="12.482145"><ele>26.0</ele><time>2026-04-08T06:13:53.101Z</time></trkpt><trkpt lat="41.8958733" lon="12.4821183"><ele>26.0</ele><time>2026-04-08T06:13:59.1Z</time></trkpt><trkpt lat="41.89594" lon="12.482095"><ele>26.0</ele><time>2026-04-08T06:14:03.101Z</time></trkpt><trkpt lat="41.8960117" lon="12.4820567"><ele>26.0</ele><time>2026-04-08T06:14:06.1Z</time></trkpt><trkpt lat="41.8960717" lon="12.48203"><ele>26.0</ele><time>2026-04-08T06:14:09.1Z</time></trkpt><trkpt lat="41.8961317" lon="12.4819917"><ele>26.0</ele><time>2026-04-08T06:14:13.1Z</time></trkpt><trkpt lat="41.896205" lon="12.4819683"><ele>26.8</ele><time>2026-04-08T06:14:20.1Z</time></trkpt><trkpt lat="41.8963533" lon="12.4819667"><ele>27.6</ele><time>2026-04-08T06:14:31.099Z</time></trkpt><trkpt lat="41.8964233" lon="12.4819267"><ele>28.4</ele><time>2026-04-08T06:14:38.099Z</time></trkpt><trkpt lat="41.89654" lon="12.4818983"><ele>29.2</ele><time>2026-04-08T06:14:46.1Z</time></trkpt><trkpt lat="41.8966333" lon="12.48192"><ele>30.0</ele><time>2026-04-08T06:14:48.099Z</time></trkpt><trkpt lat="41.8966917" lon="12.481965"><ele>30.333333333333332</ele><time>2026-04-08T06:14:50.1Z</time></trkpt><trkpt lat="41.89677" lon="12.48203"><ele>30.666666666666664</ele><time>2026-04-08T06:14:53.099Z</time></trkpt><trkpt lat="41.89684" lon="12.4820467"><ele>31.0</ele><time>2026-04-08T06:14:56.099Z</time></trkpt><trkpt lat="41.8969783" lon="12.4820283"><ele>31.333333333333332</ele><time>2026-04-08T06:15:03.099Z</time></trkpt><trkpt lat="41.8970367" lon="12.4819767"><ele>31.666666666666664</ele><time>2026-04-08T06:15:06.1Z</time></trkpt><trkpt lat="41.897095" lon="12.4819367"><ele>32.0</ele><time>2026-04-08T06:15:09.099Z</time></trkpt><trkpt lat="41.8971017" lon="12.4818517"><ele>32.0</ele><time>2026-04-08T06:15:13.1Z</time></trkpt><trkpt lat="41.8970567" lon="12.48173"><ele>32.0</ele><time>2026-04-08T06:15:30.099Z</time></trkpt><trkpt lat="41.8972133" lon="12.481715"><ele>32.0</ele><time>2026-04-08T06:15:35.099Z</time></trkpt><trkpt lat="41.8973" lon="12.481685"><ele>32.0</ele><time>2026-04-08T06:15:37.099Z</time></trkpt><trkpt lat="41.89738" lon="12.481645"><ele>32.0</ele><time>2026-04-08T06:15:39.099Z</time></trkpt><trkpt lat="41.8974867" lon="12.4816667"><ele>31.999999999999996</ele><time>2026-04-08T06:15:42.099Z</time></trkpt><trkpt lat="41.89757" lon="12.481685"><ele>32.0</ele><time>2026-04-08T06:15:44.099Z</time></trkpt><trkpt lat="41.897635" lon="12.48165"><ele>32.0</ele><time>2026-04-08T06:15:46.1Z</time></trkpt><trkpt lat="41.8977033" lon="12.48164"><ele>32.0</ele><time>2026-04-08T06:15:48.099Z</time></trkpt><trkpt lat="41.8977717" lon="12.4816017"><ele>31.999999999999996</ele><time>2026-04-08T06:16:02.099Z</time></trkpt><trkpt lat="41.8978767" lon="12.4815367"><ele>32.0</ele><time>2026-04-08T06:16:10.099Z</time></trkpt><trkpt lat="41.8979833" lon="12.4815267"><ele>32.800000000000004</ele><time>2026-04-08T06:16:13.099Z</time></trkpt><trkpt lat="41.89807" lon="12.481505"><ele>33.6</ele><time>2026-04-08T06:16:16.099Z</time></trkpt><trkpt lat="41.8981483" lon="12.4815167"><ele>34.400000000000006</ele><time>2026-04-08T06:16:17.099Z</time></trkpt><trkpt lat="41.8982383" lon="12.481475"><ele>35.2</ele><time>2026-04-08T06:16:18.099Z</time></trkpt><trkpt lat="41.8983383" lon="12.4814533"><ele>36.0</ele><time>2026-04-08T06:16:19.099Z</time></trkpt><trkpt lat="41.8986783" lon="12.4813917"><ele>36.25</ele><time>2026-04-08T06:16:24.099Z</time></trkpt><trkpt lat="41.8987783" lon="12.481375"><ele>36.5</ele><time>2026-04-08T06:16:26.099Z</time></trkpt><trkpt lat="41.8990333" lon="12.481375"><ele>36.75</ele><time>2026-04-08T06:16:32.099Z</time></trkpt><trkpt lat="41.8991183" lon="12.4813833"><ele>37.0</ele><time>2026-04-08T06:16:34.099Z</time></trkpt><trkpt lat="41.8991883" lon="12.481395"><ele>37.25</ele><time>2026-04-08T06:16:37.099Z</time></trkpt><trkpt lat="41.8993333" lon="12.48138"><ele>37.5</ele><time>2026-04-08T06:16:40.099Z</time></trkpt><trkpt lat="41.8994133" lon="12.4813"><ele>37.75</ele><time>2026-04-08T06:16:42.099Z</time></trkpt><trkpt lat="41.8994917" lon="12.4811883"><ele>38.0</ele><time>2026-04-08T06:16:44.099Z</time></trkpt><trkpt lat="41.8996033" lon="12.48108"><ele>37.4</ele><time>2026-04-08T06:16:46.099Z</time></trkpt><trkpt lat="41.8996767" lon="12.4809983"><ele>36.8</ele><time>2026-04-08T06:16:48.099Z</time></trkpt><trkpt lat="41.8997533" lon="12.480955"><ele>36.2</ele><time>2026-04-08T06:16:50.099Z</time></trkpt><trkpt lat="41.8998233" lon="12.4809267"><ele>35.6</ele><time>2026-04-08T06:16:53.099Z</time></trkpt><trkpt lat="41.899985" lon="12.4808833"><ele>35.0</ele><time>2026-04-08T06:17:10.099Z</time></trkpt><trkpt lat="41.90006" lon="12.4808783"><ele>34.83333333333333</ele><time>2026-04-08T06:17:14.099Z</time></trkpt><trkpt lat="41.9001367" lon="12.48086"><ele>34.666666666666664</ele><time>2026-04-08T06:17:32.099Z</time></trkpt><trkpt lat="41.900205" lon="12.4808083"><ele>34.5</ele><time>2026-04-08T06:17:35.099Z</time></trkpt><trkpt lat="41.90027" lon="12.480785"><ele>34.333333333333336</ele><time>2026-04-08T06:17:37.099Z</time></trkpt><trkpt lat="41.9003533" lon="12.4807733"><ele>34.16666666666667</ele><time>2026-04-08T06:17:40.099Z</time></trkpt><trkpt lat="41.9004617" lon="12.4807583"><ele>34.0</ele><time>2026-04-08T06:17:46.099Z</time></trkpt><trkpt lat="41.90055" lon="12.4807267"><ele>34.0</ele><time>2026-04-08T06:17:48.099Z</time></trkpt><trkpt lat="41.9006483" lon="12.4806767"><ele>34.0</ele><time>2026-04-08T06:17:50.099Z</time></trkpt><trkpt lat="41.90071" lon="12.480645"><ele>34.0</ele><time>2026-04-08T06:17:51.099Z</time></trkpt><trkpt lat="41.900765" lon="12.4805833"><ele>34.0</ele><time>2026-04-08T06:17:52.1Z</time></trkpt><trkpt lat="41.9008267" lon="12.4805167"><ele>34.0</ele><time>2026-04-08T06:17:53.099Z</time></trkpt><trkpt lat="41.9008883" lon="12.4804517"><ele>34.0</ele><time>2026-04-08T06:17:54.099Z</time></trkpt><trkpt lat="41.9009467" lon="12.48039"><ele>34.4</ele><time>2026-04-08T06:17:55.099Z</time></trkpt><trkpt lat="41.9009983" lon="12.4803383"><ele>34.8</ele><time>2026-04-08T06:17:56.099Z</time></trkpt><trkpt lat="41.9011017" lon="12.4802833"><ele>35.2</ele><time>2026-04-08T06:17:58.099Z</time></trkpt><trkpt lat="41.9011983" lon="12.4802583"><ele>35.6</ele><time>2026-04-08T06:18:00.099Z</time></trkpt><trkpt lat="41.9012867" lon="12.4802533"><ele>36.0</ele><time>2026-04-08T06:18:02.099Z</time></trkpt><trkpt lat="41.9013867" lon="12.4803383"><ele>35.0</ele><time>2026-04-08T06:18:06.099Z</time></trkpt><trkpt lat="41.90144" lon="12.4804383"><ele>34.0</ele><time>2026-04-08T06:18:08.099Z</time></trkpt><trkpt lat="41.90148" lon="12.480555"><ele>33.0</ele><time>2026-04-08T06:18:10.1Z</time></trkpt><trkpt lat="41.9015083" lon="12.4806817"><ele>32.0</ele><time>2026-04-08T06:18:12.1Z</time></trkpt><trkpt lat="41.9015317" lon="12.48081"><ele>31.0</ele><time>2026-04-08T06:18:14.099Z</time></trkpt><trkpt lat="41.9015467" lon="12.4809267"><ele>31.000000000000004</ele><time>2026-04-08T06:18:16.1Z</time></trkpt><trkpt lat="41.901575" lon="12.4810167"><ele>31.0</ele><time>2026-04-08T06:18:18.099Z</time></trkpt><trkpt lat="41.9015967" lon="12.4810967"><ele>31.0</ele><time>2026-04-08T06:18:20.1Z</time></trkpt><trkpt lat="41.9016117" lon="12.4812"><ele>31.0</ele><time>2026-04-08T06:18:28.099Z</time></trkpt><trkpt lat="41.9016367" lon="12.4813367"><ele>31.000000000000004</ele><time>2026-04-08T06:18:42.099Z</time></trkpt><trkpt lat="41.90168" lon="12.4814283"><ele>31.0</ele><time>2026-04-08T06:18:45.099Z</time></trkpt><trkpt lat="41.9017267" lon="12.4815117"><ele>32.0</ele><time>2026-04-08T06:18:47.099Z</time></trkpt><trkpt lat="41.9017617" lon="12.4816417"><ele>33.0</ele><time>2026-04-08T06:18:49.099Z</time></trkpt><trkpt lat="41.90178" lon="12.4817717"><ele>34.0</ele><time>2026-04-08T06:18:51.099Z</time></trkpt><trkpt lat="41.9018417" lon="12.4818933"><ele>35.0</ele><time>2026-04-08T06:18:53.099Z</time></trkpt><trkpt lat="41.9019033" lon="12.4820383"><ele>36.0</ele><time>2026-04-08T06:18:55.099Z</time></trkpt><trkpt lat="41.9019383" lon="12.48211"><ele>36.666666666666664</ele><time>2026-04-08T06:18:56.099Z</time></trkpt><trkpt lat="41.9020033" lon="12.48225"><ele>37.333333333333336</ele><time>2026-04-08T06:18:58.099Z</time></trkpt><trkpt lat="41.9020283" lon="12.4823283"><ele>38.0</ele><time>2026-04-08T06:18:59.1Z</time></trkpt><trkpt lat="41.90205" lon="12.4824083"><ele>38.66666666666667</ele><time>2026-04-08T06:19:00.1Z</time></trkpt><trkpt lat="41.9020783" lon="12.4824967"><ele>39.333333333333336</ele><time>2026-04-08T06:19:01.099Z</time></trkpt><trkpt lat="41.902095" lon="12.48259"><ele>40.0</ele><time>2026-04-08T06:19:02.099Z</time></trkpt><trkpt lat="41.9021117" lon="12.4826767"><ele>40.0</ele><time>2026-04-08T06:19:03.1Z</time></trkpt><trkpt lat="41.9021317" lon="12.4827683"><ele>40.0</ele><time>2026-04-08T06:19:04.099Z</time></trkpt><trkpt lat="41.90215" lon="12.482875"><ele>40.0</ele><time>2026-04-08T06:19:05.1Z</time></trkpt><trkpt lat="41.9022117" lon="12.4829433"><ele>40.0</ele><time>2026-04-08T06:19:06.099Z</time></trkpt><trkpt lat="41.902275" lon="12.4830067"><ele>40.0</ele><time>2026-04-08T06:19:07.099Z</time></trkpt><trkpt lat="41.9023167" lon="12.483085"><ele>40.0</ele><time>2026-04-08T06:19:08.099Z</time></trkpt><trkpt lat="41.9023567" lon="12.4831583"><ele>39.5</ele><time>2026-04-08T06:19:09.1Z</time></trkpt><trkpt lat="41.9024017" lon="12.4832383"><ele>39.0</ele><time>2026-04-08T06:19:10.099Z</time></trkpt><trkpt lat="41.9024317" lon="12.4833167"><ele>38.5</ele><time>2026-04-08T06:19:11.099Z</time></trkpt><trkpt lat="41.90247" lon="12.4833883"><ele>38.0</ele><time>2026-04-08T06:19:12.099Z</time></trkpt><trkpt lat="41.9025183" lon="12.4835117"><ele>37.5</ele><time>2026-04-08T06:19:14.099Z</time></trkpt><trkpt lat="41.9025267" lon="12.4836483"><ele>37.0</ele><time>2026-04-08T06:19:16.099Z</time></trkpt><trkpt lat="41.9025167" lon="12.4837567"><ele>36.85714285714286</ele><time>2026-04-08T06:19:18.1Z</time></trkpt><trkpt lat="41.9025167" lon="12.48386"><ele>36.714285714285715</ele><time>2026-04-08T06:19:21.1Z</time></trkpt><trkpt lat="41.902515" lon="12.4839667"><ele>36.57142857142857</ele><time>2026-04-08T06:19:41.099Z</time></trkpt><trkpt lat="41.9025167" lon="12.4840567"><ele>36.42857142857143</ele><time>2026-04-08T06:19:44.099Z</time></trkpt><trkpt lat="41.9024867" lon="12.4841383"><ele>36.285714285714285</ele><time>2026-04-08T06:19:48.099Z</time></trkpt><trkpt lat="41.902515" lon="12.4842283"><ele>36.142857142857146</ele><time>2026-04-08T06:20:23.099Z</time></trkpt><trkpt lat="41.902545" lon="12.48432"><ele>36.0</ele><time>2026-04-08T06:20:26.099Z</time></trkpt><trkpt lat="41.9025783" lon="12.4844083"><ele>35.6</ele><time>2026-04-08T06:20:28.099Z</time></trkpt><trkpt lat="41.9026067" lon="12.484515"><ele>35.2</ele><time>2026-04-08T06:20:30.099Z</time></trkpt><trkpt lat="41.90264" lon="12.484645"><ele>34.8</ele><time>2026-04-08T06:20:32.099Z</time></trkpt><trkpt lat="41.9026783" lon="12.4847783"><ele>34.4</ele><time>2026-04-08T06:20:34.099Z</time></trkpt><trkpt lat="41.9027117" lon="12.4848917"><ele>34.0</ele><time>2026-04-08T06:20:36.099Z</time></trkpt><trkpt lat="41.9027417" lon="12.4849783"><ele>34.833333333333336</ele><time>2026-04-08T06:20:38.099Z</time></trkpt><trkpt lat="41.9027967" lon="12.485055"><ele>35.66666666666667</ele><time>2026-04-08T06:20:55.099Z</time></trkpt><trkpt lat="41.90283" lon="12.485145"><ele>36.5</ele><time>2026-04-08T06:20:57.099Z</time></trkpt><trkpt lat="41.9028467" lon="12.4852567"><ele>37.333333333333336</ele><time>2026-04-08T06:20:59.099Z</time></trkpt><trkpt lat="41.9028667" lon="12.485355"><ele>38.166666666666664</ele><time>2026-04-08T06:21:01.099Z</time></trkpt><trkpt lat="41.9028367" lon="12.48547"><ele>39.0</ele><time>2026-04-08T06:21:47.099Z</time></trkpt><trkpt lat="41.9028733" lon="12.48555"><ele>39.333333333333336</ele><time>2026-04-08T06:22:26.099Z</time></trkpt><trkpt lat="41.9029" lon="12.4856567"><ele>39.666666666666664</ele><time>2026-04-08T06:22:28.099Z</time></trkpt><trkpt lat="41.9029383" lon="12.485785"><ele>40.0</ele><time>2026-04-08T06:22:30.099Z</time></trkpt><trkpt lat="41.9029433" lon="12.4858733"><ele>40.33333333333333</ele><time>2026-04-08T06:22:31.099Z</time></trkpt><trkpt lat="41.90296" lon="12.4859667"><ele>40.666666666666664</ele><time>2026-04-08T06:22:32.099Z</time></trkpt><trkpt lat="41.9029867" lon="12.4860567"><ele>41.0</ele><time>2026-04-08T06:22:33.099Z</time></trkpt><trkpt lat="41.9030067" lon="12.4861433"><ele>41.5</ele><time>2026-04-08T06:22:34.1Z</time></trkpt><trkpt lat="41.903055" lon="12.48628"><ele>42.0</ele><time>2026-04-08T06:22:36.099Z</time></trkpt><trkpt lat="41.90309" lon="12.486435"><ele>42.5</ele><time>2026-04-08T06:22:38.099Z</time></trkpt><trkpt lat="41.903105" lon="12.4865233"><ele>43.0</ele><time>2026-04-08T06:22:39.099Z</time></trkpt><trkpt lat="41.9031267" lon="12.4866117"><ele>43.5</ele><time>2026-04-08T06:22:40.099Z</time></trkpt><trkpt lat="41.9031533" lon="12.4867067"><ele>44.0</ele><time>2026-04-08T06:22:41.099Z</time></trkpt><trkpt lat="41.9031733" lon="12.4867983"><ele>44.0</ele><time>2026-04-08T06:22:42.099Z</time></trkpt><trkpt lat="41.9031917" lon="12.4868817"><ele>44.0</ele><time>2026-04-08T06:22:43.099Z</time></trkpt><trkpt lat="41.90322" lon="12.4869633"><ele>44.0</ele><time>2026-04-08T06:22:44.099Z</time></trkpt><trkpt lat="41.9032617" lon="12.4871167"><ele>44.0</ele><time>2026-04-08T06:22:46.098Z</time></trkpt><trkpt lat="41.9033083" lon="12.4872567"><ele>44.0</ele><time>2026-04-08T06:22:48.098Z</time></trkpt><trkpt lat="41.90335" lon="12.4873667"><ele>45.25</ele><time>2026-04-08T06:22:50.098Z</time></trkpt><trkpt lat="41.903425" lon="12.4874483"><ele>46.5</ele><time>2026-04-08T06:22:52.098Z</time></trkpt><trkpt lat="41.9034433" lon="12.487655"><ele>47.75</ele><time>2026-04-08T06:23:15.098Z</time></trkpt><trkpt lat="41.9034833" lon="12.4877417"><ele>49.0</ele><time>2026-04-08T06:23:18.098Z</time></trkpt><trkpt lat="41.9035817" lon="12.487915"><ele>48.6</ele><time>2026-04-08T06:23:38.098Z</time></trkpt><trkpt lat="41.9036017" lon="12.488025"><ele>48.2</ele><time>2026-04-08T06:23:40.098Z</time></trkpt><trkpt lat="41.903635" lon="12.48815"><ele>47.800000000000004</ele><time>2026-04-08T06:23:42.098Z</time></trkpt><trkpt lat="41.9036367" lon="12.4882983"><ele>47.400000000000006</ele><time>2026-04-08T06:23:44.098Z</time></trkpt><trkpt lat="41.9036633" lon="12.4884333"><ele>47.0</ele><time>2026-04-08T06:23:46.098Z</time></trkpt><trkpt lat="41.903715" lon="12.48857"><ele>47.0</ele><time>2026-04-08T06:23:48.098Z</time></trkpt><trkpt lat="41.9037717" lon="12.488715"><ele>47.0</ele><time>2026-04-08T06:23:50.098Z</time></trkpt><trkpt lat="41.9038133" lon="12.4888517"><ele>47.0</ele><time>2026-04-08T06:23:52.098Z</time></trkpt><trkpt lat="41.9038367" lon="12.4889483"><ele>47.0</ele><time>2026-04-08T06:23:54.098Z</time></trkpt><trkpt lat="41.903925" lon="12.4889617"><ele>47.0</ele><time>2026-04-08T06:24:03.099Z</time></trkpt><trkpt lat="41.904" lon="12.488945"><ele>48.33333333333333</ele><time>2026-04-08T06:24:05.099Z</time></trkpt><trkpt lat="41.90407" lon="12.4889183"><ele>49.666666666666664</ele><time>2026-04-08T06:24:08.098Z</time></trkpt><trkpt lat="41.9041367" lon="12.488855"><ele>51.0</ele><time>2026-04-08T06:24:40.098Z</time></trkpt><trkpt lat="41.9042" lon="12.4887917"><ele>52.33333333333333</ele><time>2026-04-08T06:24:42.098Z</time></trkpt><trkpt lat="41.9042817" lon="12.4887183"><ele>53.666666666666664</ele><time>2026-04-08T06:24:44.098Z</time></trkpt><trkpt lat="41.90436" lon="12.4886433"><ele>55.0</ele><time>2026-04-08T06:24:46.098Z</time></trkpt><trkpt lat="41.904425" lon="12.4885933"><ele>55.4</ele><time>2026-04-08T06:24:48.098Z</time></trkpt><trkpt lat="41.9044833" lon="12.4885383"><ele>55.8</ele><time>2026-04-08T06:24:51.099Z</time></trkpt><trkpt lat="41.9044933" lon="12.4883867"><ele>56.2</ele><time>2026-04-08T06:25:06.098Z</time></trkpt><trkpt lat="41.9045217" lon="12.4883"><ele>56.6</ele><time>2026-04-08T06:25:14.098Z</time></trkpt><trkpt lat="41.904605" lon="12.4880967"><ele>57.0</ele><time>2026-04-08T06:25:40.098Z</time></trkpt><trkpt lat="41.9047" lon="12.4880433"><ele>57.0</ele><time>2026-04-08T06:25:42.099Z</time></trkpt><trkpt lat="41.9047567" lon="12.488005"><ele>57.0</ele><time>2026-04-08T06:25:43.098Z</time></trkpt><trkpt lat="41.9048717" lon="12.48793"><ele>57.0</ele><time>2026-04-08T06:25:45.098Z</time></trkpt><trkpt lat="41.904935" lon="12.48789"><ele>57.0</ele><time>2026-04-08T06:25:46.098Z</time></trkpt><trkpt lat="41.9049983" lon="12.4878567"><ele>57.0</ele><time>2026-04-08T06:25:47.098Z</time></trkpt><trkpt lat="41.9050617" lon="12.4878433"><ele>57.0</ele><time>2026-04-08T06:25:48.098Z</time></trkpt><trkpt lat="41.9051267" lon="12.487845"><ele>57.833333333333336</ele><time>2026-04-08T06:25:49.098Z</time></trkpt><trkpt lat="41.9051967" lon="12.4878667"><ele>58.66666666666667</ele><time>2026-04-08T06:25:50.098Z</time></trkpt><trkpt lat="41.90527" lon="12.4878917"><ele>59.5</ele><time>2026-04-08T06:25:51.099Z</time></trkpt><trkpt lat="41.9053433" lon="12.4879217"><ele>60.333333333333336</ele><time>2026-04-08T06:25:52.098Z</time></trkpt><trkpt lat="41.9054633" lon="12.4880033"><ele>61.16666666666667</ele><time>2026-04-08T06:25:54.098Z</time></trkpt><trkpt lat="41.9055133" lon="12.4880567"><ele>62.0</ele><time>2026-04-08T06:25:55.098Z</time></trkpt><trkpt lat="41.9055733" lon="12.48821"><ele>62.16666666666667</ele><time>2026-04-08T06:25:57.098Z</time></trkpt><trkpt lat="41.9056083" lon="12.4883117"><ele>62.333333333333336</ele><time>2026-04-08T06:25:58.098Z</time></trkpt><trkpt lat="41.9056383" lon="12.4884167"><ele>62.5</ele><time>2026-04-08T06:25:59.098Z</time></trkpt><trkpt lat="41.905695" lon="12.4885183"><ele>62.66666666666667</ele><time>2026-04-08T06:26:00.098Z</time></trkpt><trkpt lat="41.9057317" lon="12.4886133"><ele>62.833333333333336</ele><time>2026-04-08T06:26:01.099Z</time></trkpt><trkpt lat="41.9057733" lon="12.4887017"><ele>63.0</ele><time>2026-04-08T06:26:02.098Z</time></trkpt><trkpt lat="41.9058167" lon="12.4887967"><ele>64.16666666666667</ele><time>2026-04-08T06:26:03.098Z</time></trkpt><trkpt lat="41.9058467" lon="12.4888983"><ele>65.33333333333333</ele><time>2026-04-08T06:26:04.098Z</time></trkpt><trkpt lat="41.9058783" lon="12.4890117"><ele>66.5</ele><time>2026-04-08T06:26:05.098Z</time></trkpt><trkpt lat="41.9059083" lon="12.489115"><ele>67.66666666666666</ele><time>2026-04-08T06:26:06.098Z</time></trkpt><trkpt lat="41.9059467" lon="12.4892183"><ele>68.83333333333333</ele><time>2026-04-08T06:26:07.099Z</time></trkpt><trkpt lat="41.905975" lon="12.4893167"><ele>70.0</ele><time>2026-04-08T06:26:08.098Z</time></trkpt><trkpt lat="41.90601" lon="12.4894133"><ele>70.5</ele><time>2026-04-08T06:26:09.099Z</time></trkpt><trkpt lat="41.90604" lon="12.4894983"><ele>71.0</ele><time>2026-04-08T06:26:10.098Z</time></trkpt><trkpt lat="41.9060967" lon="12.4896317"><ele>71.5</ele><time>2026-04-08T06:26:12.098Z</time></trkpt><trkpt lat="41.9061567" lon="12.4897"><ele>72.0</ele><time>2026-04-08T06:26:14.098Z</time></trkpt><trkpt lat="41.9061933" lon="12.489775"><ele>72.5</ele><time>2026-04-08T06:26:17.098Z</time></trkpt><trkpt lat="41.906225" lon="12.48985"><ele>73.0</ele><time>2026-04-08T06:26:32.098Z</time></trkpt><trkpt lat="41.9062517" lon="12.4899283"><ele>73.0</ele><time>2026-04-08T06:26:37.098Z</time></trkpt><trkpt lat="41.9063033" lon="12.489995"><ele>73.0</ele><time>2026-04-08T06:26:43.098Z</time></trkpt><trkpt lat="41.9063633" lon="12.4900617"><ele>73.0</ele><time>2026-04-08T06:26:46.098Z</time></trkpt><trkpt lat="41.9064183" lon="12.490115"><ele>73.0</ele><time>2026-04-08T06:26:48.098Z</time></trkpt><trkpt lat="41.9064917" lon="12.4901733"><ele>73.0</ele><time>2026-04-08T06:26:51.098Z</time></trkpt><trkpt lat="41.906575" lon="12.4902067"><ele>73.0</ele><time>2026-04-08T06:26:54.098Z</time></trkpt><trkpt lat="41.90665" lon="12.490215"><ele>73.0</ele><time>2026-04-08T06:26:56.098Z</time></trkpt><trkpt lat="41.906715" lon="12.4902133"><ele>73.0</ele><time>2026-04-08T06:26:58.098Z</time></trkpt><trkpt lat="41.90679" lon="12.490195"><ele>73.0</ele><time>2026-04-08T06:27:01.098Z</time></trkpt><trkpt lat="41.90685" lon="12.49014"><ele>73.0</ele><time>2026-04-08T06:27:05.098Z</time></trkpt><trkpt lat="41.90697" lon="12.4900817"><ele>73.0</ele><time>2026-04-08T06:27:22.098Z</time></trkpt><trkpt lat="41.9070317" lon="12.49004"><ele>73.0</ele><time>2026-04-08T06:27:24.098Z</time></trkpt><trkpt lat="41.9071033" lon="12.4899967"><ele>73.0</ele><time>2026-04-08T06:27:26.098Z</time></trkpt><trkpt lat="41.9071567" lon="12.4899417"><ele>73.0</ele><time>2026-04-08T06:27:28.098Z</time></trkpt><trkpt lat="41.90721" lon="12.489895"><ele>73.0</ele><time>2026-04-08T06:27:30.098Z</time></trkpt><trkpt lat="41.9072917" lon="12.4898767"><ele>73.0</ele><time>2026-04-08T06:27:32.098Z</time></trkpt><trkpt lat="41.9073717" lon="12.4898783"><ele>73.0</ele><time>2026-04-08T06:27:34.098Z</time></trkpt><trkpt lat="41.9074433" lon="12.489945"><ele>73.0</ele><time>2026-04-08T06:27:36.099Z</time></trkpt><trkpt lat="41.9074917" lon="12.49009"><ele>73.0</ele><time>2026-04-08T06:27:38.098Z</time></trkpt><trkpt lat="41.9075183" lon="12.49018"><ele>73.0</ele><time>2026-04-08T06:27:39.098Z</time></trkpt><trkpt lat="41.9075283" lon="12.49028"><ele>73.0</ele><time>2026-04-08T06:27:40.098Z</time></trkpt><trkpt lat="41.9075417" lon="12.490385"><ele>73.0</ele><time>2026-04-08T06:27:41.098Z</time></trkpt><trkpt lat="41.9075533" lon="12.49049"><ele>73.0</ele><time>2026-04-08T06:27:42.098Z</time></trkpt><trkpt lat="41.9075767" lon="12.4906067"><ele>73.0</ele><time>2026-04-08T06:27:43.098Z</time></trkpt><trkpt lat="41.9076083" lon="12.49072"><ele>73.33333333333333</ele><time>2026-04-08T06:27:44.099Z</time></trkpt><trkpt lat="41.90764" lon="12.4908283"><ele>73.66666666666666</ele><time>2026-04-08T06:27:45.099Z</time></trkpt><trkpt lat="41.9076817" lon="12.49094"><ele>74.0</ele><time>2026-04-08T06:27:46.099Z</time></trkpt><trkpt lat="41.9077" lon="12.4910533"><ele>74.33333333333333</ele><time>2026-04-08T06:27:47.098Z</time></trkpt><trkpt lat="41.9077233" lon="12.4911633"><ele>74.66666666666667</ele><time>2026-04-08T06:27:48.098Z</time></trkpt><trkpt lat="41.9077467" lon="12.49127"><ele>75.0</ele><time>2026-04-08T06:27:49.098Z</time></trkpt><trkpt lat="41.907765" lon="12.49137"><ele>74.16666666666667</ele><time>2026-04-08T06:27:50.098Z</time></trkpt><trkpt lat="41.9077883" lon="12.4914733"><ele>73.33333333333333</ele><time>2026-04-08T06:27:51.098Z</time></trkpt><trkpt lat="41.9078233" lon="12.4915683"><ele>72.5</ele><time>2026-04-08T06:27:52.098Z</time></trkpt><trkpt lat="41.907845" lon="12.491655"><ele>71.66666666666666</ele><time>2026-04-08T06:27:53.098Z</time></trkpt><trkpt lat="41.9078817" lon="12.4918033"><ele>70.83333333333333</ele><time>2026-04-08T06:27:55.098Z</time></trkpt><trkpt lat="41.907925" lon="12.4919183"><ele>70.0</ele><time>2026-04-08T06:27:57.098Z</time></trkpt><trkpt lat="41.9079567" lon="12.4920267"><ele>69.8</ele><time>2026-04-08T06:27:59.098Z</time></trkpt><trkpt lat="41.907995" lon="12.492145"><ele>69.6</ele><time>2026-04-08T06:28:01.098Z</time></trkpt><trkpt lat="41.9080317" lon="12.4922717"><ele>69.4</ele><time>2026-04-08T06:28:03.098Z</time></trkpt><trkpt lat="41.90806" lon="12.4923867"><ele>69.2</ele><time>2026-04-08T06:28:05.098Z</time></trkpt><trkpt lat="41.9080883" lon="12.49247"><ele>69.0</ele><time>2026-04-08T06:28:07.098Z</time></trkpt><trkpt lat="41.9081367" lon="12.4925883"><ele>69.0</ele><time>2026-04-08T06:28:43.098Z</time></trkpt><trkpt lat="41.9081817" lon="12.4927"><ele>69.0</ele><time>2026-04-08T06:28:45.098Z</time></trkpt><trkpt lat="41.9082283" lon="12.4928233"><ele>69.0</ele><time>2026-04-08T06:28:47.098Z</time></trkpt><trkpt lat="41.9082883" lon="12.492925"><ele>69.0</ele><time>2026-04-08T06:28:49.098Z</time></trkpt><trkpt lat="41.9083117" lon="12.4930433"><ele>69.0</ele><time>2026-04-08T06:28:51.098Z</time></trkpt><trkpt lat="41.9083217" lon="12.4931367"><ele>69.16666666666667</ele><time>2026-04-08T06:28:53.098Z</time></trkpt><trkpt lat="41.908325" lon="12.4932383"><ele>69.33333333333333</ele><time>2026-04-08T06:28:57.098Z</time></trkpt><trkpt lat="41.9083383" lon="12.4933283"><ele>69.5</ele><time>2026-04-08T06:29:06.098Z</time></trkpt><trkpt lat="41.908355" lon="12.493455"><ele>69.66666666666666</ele><time>2026-04-08T06:29:09.097Z</time></trkpt><trkpt lat="41.9083767" lon="12.4935583"><ele>69.83333333333333</ele><time>2026-04-08T06:29:11.097Z</time></trkpt><trkpt lat="41.9084117" lon="12.493665"><ele>70.0</ele><time>2026-04-08T06:29:13.097Z</time></trkpt><trkpt lat="41.9084417" lon="12.4937683"><ele>70.66666666666666</ele><time>2026-04-08T06:29:15.097Z</time></trkpt><trkpt lat="41.9084617" lon="12.4938667"><ele>71.33333333333333</ele><time>2026-04-08T06:29:18.098Z</time></trkpt><trkpt lat="41.908505" lon="12.49401"><ele>72.0</ele><time>2026-04-08T06:29:43.097Z</time></trkpt><trkpt lat="41.908535" lon="12.494125"><ele>72.66666666666667</ele><time>2026-04-08T06:29:46.098Z</time></trkpt><trkpt lat="41.9085583" lon="12.494205"><ele>73.33333333333334</ele><time>2026-04-08T06:29:48.097Z</time></trkpt><trkpt lat="41.9086167" lon="12.4942667"><ele>74.0</ele><time>2026-04-08T06:29:50.097Z</time></trkpt><trkpt lat="41.9086733" lon="12.49434"><ele>74.0</ele><time>2026-04-08T06:29:53.097Z</time></trkpt><trkpt lat="41.9087267" lon="12.4944233"><ele>74.0</ele><time>2026-04-08T06:29:56.098Z</time></trkpt><trkpt lat="41.908755" lon="12.4945317"><ele>74.0</ele><time>2026-04-08T06:29:58.097Z</time></trkpt><trkpt lat="41.9088017" lon="12.4946683"><ele>74.0</ele><time>2026-04-08T06:30:00.098Z</time></trkpt><trkpt lat="41.9088183" lon="12.49475"><ele>74.0</ele><time>2026-04-08T06:30:01.097Z</time></trkpt><trkpt lat="41.90884" lon="12.4948467"><ele>74.0</ele><time>2026-04-08T06:30:02.098Z</time></trkpt><trkpt lat="41.9088667" lon="12.4949367"><ele>73.66666666666667</ele><time>2026-04-08T06:30:03.097Z</time></trkpt><trkpt lat="41.9088883" lon="12.4950417"><ele>73.33333333333334</ele><time>2026-04-08T06:30:04.097Z</time></trkpt><trkpt lat="41.9089117" lon="12.4951467"><ele>73.0</ele><time>2026-04-08T06:30:05.097Z</time></trkpt><trkpt lat="41.9089383" lon="12.4952433"><ele>72.66666666666667</ele><time>2026-04-08T06:30:06.097Z</time></trkpt><trkpt lat="41.9089567" lon="12.4953433"><ele>72.33333333333333</ele><time>2026-04-08T06:30:07.098Z</time></trkpt><trkpt lat="41.9089717" lon="12.49544"><ele>72.0</ele><time>2026-04-08T06:30:08.098Z</time></trkpt><trkpt lat="41.9089917" lon="12.49554"><ele>72.0</ele><time>2026-04-08T06:30:09.097Z</time></trkpt><trkpt lat="41.909025" lon="12.4956317"><ele>72.0</ele><time>2026-04-08T06:30:10.097Z</time></trkpt><trkpt lat="41.9090583" lon="12.4957233"><ele>72.0</ele><time>2026-04-08T06:30:11.098Z</time></trkpt><trkpt lat="41.9090817" lon="12.4958083"><ele>72.0</ele><time>2026-04-08T06:30:12.097Z</time></trkpt><trkpt lat="41.909085" lon="12.4959133"><ele>72.0</ele><time>2026-04-08T06:30:13.097Z</time></trkpt><trkpt lat="41.9090917" lon="12.496"><ele>72.0</ele><time>2026-04-08T06:30:14.097Z</time></trkpt><trkpt lat="41.909115" lon="12.4961417"><ele>71.8</ele><time>2026-04-08T06:30:16.098Z</time></trkpt><trkpt lat="41.9091367" lon="12.4962533"><ele>71.6</ele><time>2026-04-08T06:30:18.097Z</time></trkpt><trkpt lat="41.9091717" lon="12.49638"><ele>71.39999999999999</ele><time>2026-04-08T06:30:20.097Z</time></trkpt><trkpt lat="41.9091967" lon="12.4965317"><ele>71.2</ele><time>2026-04-08T06:30:22.097Z</time></trkpt><trkpt lat="41.9092367" lon="12.49668"><ele>71.0</ele><time>2026-04-08T06:30:24.097Z</time></trkpt><trkpt lat="41.9093133" lon="12.49679"><ele>71.5</ele><time>2026-04-08T06:30:26.097Z</time></trkpt><trkpt lat="41.9093767" lon="12.4968983"><ele>72.0</ele><time>2026-04-08T06:30:28.097Z</time></trkpt><trkpt lat="41.9094183" lon="12.496975"><ele>72.5</ele><time>2026-04-08T06:30:30.097Z</time></trkpt><trkpt lat="41.90946" lon="12.4970467"><ele>73.0</ele><time>2026-04-08T06:30:32.097Z</time></trkpt><trkpt lat="41.9095183" lon="12.497125"><ele>73.5</ele><time>2026-04-08T06:30:34.097Z</time></trkpt><trkpt lat="41.9095933" lon="12.497175"><ele>74.0</ele><time>2026-04-08T06:30:36.097Z</time></trkpt><trkpt lat="41.909665" lon="12.4972417"><ele>74.0</ele><time>2026-04-08T06:30:38.097Z</time></trkpt><trkpt lat="41.9097383" lon="12.4973083"><ele>74.0</ele><time>2026-04-08T06:30:40.098Z</time></trkpt><trkpt lat="41.90982" lon="12.4973783"><ele>74.0</ele><time>2026-04-08T06:30:42.097Z</time></trkpt><trkpt lat="41.9099117" lon="12.4974517"><ele>74.0</ele><time>2026-04-08T06:30:44.097Z</time></trkpt><trkpt lat="41.9099717" lon="12.4975183"><ele>74.0</ele><time>2026-04-08T06:30:46.097Z</time></trkpt><trkpt lat="41.9100317" lon="12.4975883"><ele>74.0</ele><time>2026-04-08T06:30:49.097Z</time></trkpt><trkpt lat="41.9101033" lon="12.497705"><ele>74.2</ele><time>2026-04-08T06:31:20.097Z</time></trkpt><trkpt lat="41.9101683" lon="12.49776"><ele>74.4</ele><time>2026-04-08T06:32:26.097Z</time></trkpt><trkpt lat="41.9102333" lon="12.4978183"><ele>74.6</ele><time>2026-04-08T06:32:30.097Z</time></trkpt><trkpt lat="41.9103183" lon="12.4979383"><ele>74.8</ele><time>2026-04-08T06:32:48.098Z</time></trkpt><trkpt lat="41.9103933" lon="12.498"><ele>75.0</ele><time>2026-04-08T06:32:51.097Z</time></trkpt><trkpt lat="41.91046" lon="12.49808"><ele>75.0</ele><time>2026-04-08T06:32:54.098Z</time></trkpt><trkpt lat="41.9105267" lon="12.4981617"><ele>75.0</ele><time>2026-04-08T06:32:57.098Z</time></trkpt><trkpt lat="41.910605" lon="12.498185"><ele>75.0</ele><time>2026-04-08T06:33:00.098Z</time></trkpt><trkpt lat="41.9106883" lon="12.49816"><ele>75.0</ele><time>2026-04-08T06:33:03.097Z</time></trkpt><trkpt lat="41.910755" lon="12.4981067"><ele>75.0</ele><time>2026-04-08T06:33:06.097Z</time></trkpt><trkpt lat="41.91083" lon="12.498065"><ele>75.0</ele><time>2026-04-08T06:33:10.097Z</time></trkpt><trkpt lat="41.9109983" lon="12.4980517"><ele>74.99999999999999</ele><time>2026-04-08T06:34:47.097Z</time></trkpt><trkpt lat="41.9110383" lon="12.497985"><ele>75.0</ele><time>2026-04-08T06:34:52.097Z</time></trkpt><trkpt lat="41.9110467" lon="12.4978933"><ele>75.0</ele><time>2026-04-08T06:35:15.096Z</time></trkpt><trkpt lat="41.9109933" lon="12.497765"><ele>75.0</ele><time>2026-04-08T06:36:01.096Z</time></trkpt><trkpt lat="41.910975" lon="12.497675"><ele>75.0</ele><time>2026-04-08T06:36:06.096Z</time></trkpt><trkpt lat="41.9109867" lon="12.49759"><ele>74.99999999999999</ele><time>2026-04-08T06:36:10.096Z</time></trkpt><trkpt lat="41.9109817" lon="12.4975017"><ele>75.0</ele><time>2026-04-08T06:36:13.096Z</time></trkpt><trkpt lat="41.91097" lon="12.4974017"><ele>75.28571428571428</ele><time>2026-04-08T06:36:16.096Z</time></trkpt><trkpt lat="41.91097" lon="12.4973033"><ele>75.57142857142857</ele><time>2026-04-08T06:36:26.132Z</time></trkpt><trkpt lat="41.9109817" lon="12.4972183"><ele>75.85714285714286</ele><time>2026-04-08T06:36:29.096Z</time></trkpt><trkpt lat="41.911" lon="12.4971233"><ele>76.14285714285714</ele><time>2026-04-08T06:36:34.096Z</time></trkpt><trkpt lat="41.9110017" lon="12.4970217"><ele>76.42857142857143</ele><time>2026-04-08T06:36:37.096Z</time></trkpt><trkpt lat="41.9110017" lon="12.4969367"><ele>76.71428571428571</ele><time>2026-04-08T06:36:40.096Z</time></trkpt><trkpt lat="41.9110033" lon="12.4968433"><ele>77.0</ele><time>2026-04-08T06:36:44.096Z</time></trkpt><trkpt lat="41.9109983" lon="12.4967567"><ele>77.0</ele><time>2026-04-08T06:36:58.096Z</time></trkpt><trkpt lat="41.91102" lon="12.4966733"><ele>77.0</ele><time>2026-04-08T06:37:01.096Z</time></trkpt><trkpt lat="41.9110383" lon="12.4965867"><ele>77.0</ele><time>2026-04-08T06:37:04.096Z</time></trkpt><trkpt lat="41.9110517" lon="12.4964917"><ele>77.0</ele><time>2026-04-08T06:37:07.097Z</time></trkpt><trkpt lat="41.9110633" lon="12.4963917"><ele>77.0</ele><time>2026-04-08T06:37:11.096Z</time></trkpt><trkpt lat="41.9110667" lon="12.496265"><ele>77.0</ele><time>2026-04-08T06:37:48.096Z</time></trkpt><trkpt lat="41.91107" lon="12.4961767"><ele>77.0</ele><time>2026-04-08T06:37:55.097Z</time></trkpt><trkpt lat="41.9110517" lon="12.4960817"><ele>77.0</ele><time>2026-04-08T06:38:00.096Z</time></trkpt><trkpt lat="41.9110483" lon="12.4958733"><ele>77.0</ele><time>2026-04-08T06:38:14.096Z</time></trkpt><trkpt lat="41.9110733" lon="12.495785"><ele>77.0</ele><time>2026-04-08T06:38:18.096Z</time></trkpt><trkpt lat="41.9110933" lon="12.4956917"><ele>77.0</ele><time>2026-04-08T06:38:28.096Z</time></trkpt><trkpt lat="41.9110867" lon="12.4955967"><ele>77.0</ele><time>2026-04-08T06:38:31.096Z</time></trkpt><trkpt lat="41.9110667" lon="12.495465"><ele>76.85714285714286</ele><time>2026-04-08T06:38:53.096Z</time></trkpt><trkpt lat="41.9110667" lon="12.4953783"><ele>76.71428571428572</ele><time>2026-04-08T06:38:56.097Z</time></trkpt><trkpt lat="41.91107" lon="12.4952867"><ele>76.57142857142857</ele><time>2026-04-08T06:38:59.096Z</time></trkpt><trkpt lat="41.9110767" lon="12.495175"><ele>76.42857142857143</ele><time>2026-04-08T06:39:02.096Z</time></trkpt><trkpt lat="41.9110833" lon="12.495065"><ele>76.28571428571429</ele><time>2026-04-08T06:39:05.096Z</time></trkpt><trkpt lat="41.9110983" lon="12.4949817"><ele>76.14285714285714</ele><time>2026-04-08T06:39:08.096Z</time></trkpt><trkpt lat="41.9110967" lon="12.49489"><ele>76.0</ele><time>2026-04-08T06:39:14.096Z</time></trkpt><trkpt lat="41.9110783" lon="12.4947317"><ele>76.0</ele><time>2026-04-08T06:39:51.096Z</time></trkpt><trkpt lat="41.9110783" lon="12.4946467"><ele>76.0</ele><time>2026-04-08T06:40:06.096Z</time></trkpt><trkpt lat="41.911055" lon="12.4945583"><ele>76.0</ele><time>2026-04-08T06:40:08.096Z</time></trkpt><trkpt lat="41.9110483" lon="12.4944733"><ele>76.0</ele><time>2026-04-08T06:40:10.096Z</time></trkpt><trkpt lat="41.9110233" lon="12.494355"><ele>76.0</ele><time>2026-04-08T06:40:13.096Z</time></trkpt><trkpt lat="41.91102" lon="12.4942533"><ele>76.0</ele><time>2026-04-08T06:40:16.097Z</time></trkpt><trkpt lat="41.9110367" lon="12.494155"><ele>76.0</ele><time>2026-04-08T06:40:20.096Z</time></trkpt><trkpt lat="41.9110467" lon="12.4940067"><ele>76.0</ele><time>2026-04-08T06:41:03.096Z</time></trkpt><trkpt lat="41.9110533" lon="12.493905"><ele>76.0</ele><time>2026-04-08T06:41:10.095Z</time></trkpt><trkpt lat="41.9110433" lon="12.4938"><ele>76.0</ele><time>2026-04-08T06:41:14.095Z</time></trkpt><trkpt lat="41.9110817" lon="12.4937117"><ele>76.0</ele><time>2026-04-08T06:41:19.096Z</time></trkpt><trkpt lat="41.91131" lon="12.4936833"><ele>76.0</ele><time>2026-04-08T06:41:30.095Z</time></trkpt><trkpt lat="41.9114017" lon="12.4936933"><ele>76.0</ele><time>2026-04-08T06:41:32.096Z</time></trkpt><trkpt lat="41.9115017" lon="12.4936883"><ele>76.0</ele><time>2026-04-08T06:41:34.096Z</time></trkpt><trkpt lat="41.9115717" lon="12.4936817"><ele>76.0</ele><time>2026-04-08T06:41:36.095Z</time></trkpt><trkpt lat="41.911635" lon="12.493625"><ele>76.0</ele><time>2026-04-08T06:41:38.095Z</time></trkpt><trkpt lat="41.911755" lon="12.4936333"><ele>74.2</ele><time>2026-04-08T06:41:59.095Z</time></trkpt><trkpt lat="41.9118367" lon="12.4935933"><ele>72.39999999999999</ele><time>2026-04-08T06:42:02.095Z</time></trkpt><trkpt lat="41.9119183" lon="12.4936233"><ele>70.6</ele><time>2026-04-08T06:42:04.095Z</time></trkpt><trkpt lat="41.9120383" lon="12.49366"><ele>68.8</ele><time>2026-04-08T06:42:06.095Z</time></trkpt><trkpt lat="41.9121517" lon="12.4936417"><ele>67.0</ele><time>2026-04-08T06:42:08.095Z</time></trkpt><trkpt lat="41.9122567" lon="12.49365"><ele>67.0</ele><time>2026-04-08T06:42:10.095Z</time></trkpt><trkpt lat="41.91235" lon="12.4936583"><ele>67.0</ele><time>2026-04-08T06:42:12.095Z</time></trkpt><trkpt lat="41.9124233" lon="12.493655"><ele>67.0</ele><time>2026-04-08T06:42:14.095Z</time></trkpt><trkpt lat="41.9125" lon="12.4936333"><ele>67.0</ele><time>2026-04-08T06:42:17.095Z</time></trkpt><trkpt lat="41.9126217" lon="12.4936217"><ele>67.0</ele><time>2026-04-08T06:42:20.096Z</time></trkpt><trkpt lat="41.91271" lon="12.4936383"><ele>66.6</ele><time>2026-04-08T06:42:22.096Z</time></trkpt><trkpt lat="41.91281" lon="12.4936933"><ele>66.2</ele><time>2026-04-08T06:42:24.095Z</time></trkpt><trkpt lat="41.9129133" lon="12.493755"><ele>65.8</ele><time>2026-04-08T06:42:26.095Z</time></trkpt><trkpt lat="41.9130117" lon="12.4938217"><ele>65.4</ele><time>2026-04-08T06:42:28.096Z</time></trkpt><trkpt lat="41.913085" lon="12.4938883"><ele>65.0</ele><time>2026-04-08T06:42:30.095Z</time></trkpt><trkpt lat="41.913155" lon="12.4939483"><ele>65.83333333333334</ele><time>2026-04-08T06:42:33.095Z</time></trkpt><trkpt lat="41.913225" lon="12.4939883"><ele>66.66666666666667</ele><time>2026-04-08T06:42:37.095Z</time></trkpt><trkpt lat="41.9133117" lon="12.4940617"><ele>67.5</ele><time>2026-04-08T06:42:51.095Z</time></trkpt><trkpt lat="41.9133933" lon="12.4941233"><ele>68.33333333333333</ele><time>2026-04-08T06:42:54.095Z</time></trkpt><trkpt lat="41.9134467" lon="12.4941883"><ele>69.16666666666666</ele><time>2026-04-08T06:42:56.095Z</time></trkpt><trkpt lat="41.913495" lon="12.4942667"><ele>70.0</ele><time>2026-04-08T06:42:59.095Z</time></trkpt><trkpt lat="41.9135617" lon="12.494335"><ele>70.0</ele><time>2026-04-08T06:43:02.096Z</time></trkpt><trkpt lat="41.9136433" lon="12.49441"><ele>70.0</ele><time>2026-04-08T06:43:04.096Z</time></trkpt><trkpt lat="41.91373" lon="12.4944833"><ele>70.0</ele><time>2026-04-08T06:43:06.095Z</time></trkpt><trkpt lat="41.9138167" lon="12.4945583"><ele>70.0</ele><time>2026-04-08T06:43:08.095Z</time></trkpt><trkpt lat="41.91391" lon="12.4946367"><ele>70.0</ele><time>2026-04-08T06:43:10.095Z</time></trkpt><trkpt lat="41.9139667" lon="12.494675"><ele>71.0</ele><time>2026-04-08T06:43:11.095Z</time></trkpt><trkpt lat="41.914065" lon="12.4947683"><ele>72.0</ele><time>2026-04-08T06:43:13.095Z</time></trkpt><trkpt lat="41.914115" lon="12.49482"><ele>73.0</ele><time>2026-04-08T06:43:14.095Z</time></trkpt><trkpt lat="41.9142017" lon="12.4949167"><ele>74.0</ele><time>2026-04-08T06:43:16.096Z</time></trkpt><trkpt lat="41.9142783" lon="12.4949917"><ele>75.0</ele><time>2026-04-08T06:43:18.096Z</time></trkpt><trkpt lat="41.9143383" lon="12.4950617"><ele>75.0</ele><time>2026-04-08T06:43:20.095Z</time></trkpt><trkpt lat="41.9143967" lon="12.4951167"><ele>75.0</ele><time>2026-04-08T06:43:23.096Z</time></trkpt><trkpt lat="41.9144717" lon="12.495165"><ele>75.0</ele><time>2026-04-08T06:43:30.095Z</time></trkpt><trkpt lat="41.91454" lon="12.4952117"><ele>75.0</ele><time>2026-04-08T06:43:32.095Z</time></trkpt><trkpt lat="41.9146133" lon="12.4952717"><ele>75.0</ele><time>2026-04-08T06:43:34.095Z</time></trkpt><trkpt lat="41.9146733" lon="12.4953317"><ele>75.0</ele><time>2026-04-08T06:43:36.095Z</time></trkpt><trkpt lat="41.91473" lon="12.495405"><ele>75.0</ele><time>2026-04-08T06:43:38.095Z</time></trkpt><trkpt lat="41.9147917" lon="12.4954867"><ele>75.0</ele><time>2026-04-08T06:43:40.095Z</time></trkpt><trkpt lat="41.9148683" lon="12.4955433"><ele>75.0</ele><time>2026-04-08T06:43:42.095Z</time></trkpt><trkpt lat="41.9149317" lon="12.4956067"><ele>75.0</ele><time>2026-04-08T06:43:45.095Z</time></trkpt><trkpt lat="41.915025" lon="12.4957033"><ele>75.0</ele><time>2026-04-08T06:44:02.095Z</time></trkpt><trkpt lat="41.915105" lon="12.4957933"><ele>75.0</ele><time>2026-04-08T06:44:04.095Z</time></trkpt><trkpt lat="41.9151817" lon="12.4958883"><ele>75.0</ele><time>2026-04-08T06:44:06.095Z</time></trkpt><trkpt lat="41.9152617" lon="12.495995"><ele>75.0</ele><time>2026-04-08T06:44:08.095Z</time></trkpt><trkpt lat="41.915325" lon="12.4960967"><ele>75.0</ele><time>2026-04-08T06:44:10.095Z</time></trkpt><trkpt lat="41.91537" lon="12.49618"><ele>75.0</ele><time>2026-04-08T06:44:12.095Z</time></trkpt><trkpt lat="41.9154233" lon="12.4962517"><ele>75.0</ele><time>2026-04-08T06:44:15.095Z</time></trkpt><trkpt lat="41.9154817" lon="12.49633"><ele>75.0</ele><time>2026-04-08T06:44:17.096Z</time></trkpt><trkpt lat="41.9155417" lon="12.496425"><ele>75.0</ele><time>2026-04-08T06:44:19.095Z</time></trkpt><trkpt lat="41.9156133" lon="12.4965267"><ele>75.0</ele><time>2026-04-08T06:44:21.095Z</time></trkpt><trkpt lat="41.9156917" lon="12.4966333"><ele>75.0</ele><time>2026-04-08T06:44:23.096Z</time></trkpt><trkpt lat="41.9157567" lon="12.496745"><ele>75.0</ele><time>2026-04-08T06:44:25.095Z</time></trkpt><trkpt lat="41.9158217" lon="12.4968683"><ele>75.0</ele><time>2026-04-08T06:44:27.095Z</time></trkpt><trkpt lat="41.915895" lon="12.4969667"><ele>75.0</ele><time>2026-04-08T06:44:29.095Z</time></trkpt><trkpt lat="41.91596" lon="12.49705"><ele>75.0</ele><time>2026-04-08T06:44:31.095Z</time></trkpt><trkpt lat="41.91602" lon="12.4971283"><ele>75.0</ele><time>2026-04-08T06:44:33.095Z</time></trkpt><trkpt lat="41.91607" lon="12.4972033"><ele>75.0</ele><time>2026-04-08T06:44:35.095Z</time></trkpt><trkpt lat="41.9161283" lon="12.4972883"><ele>75.0</ele><time>2026-04-08T06:44:37.095Z</time></trkpt><trkpt lat="41.9162067" lon="12.4973933"><ele>75.0</ele><time>2026-04-08T06:44:39.095Z</time></trkpt><trkpt lat="41.9162867" lon="12.4974917"><ele>75.0</ele><time>2026-04-08T06:44:41.095Z</time></trkpt><trkpt lat="41.9163667" lon="12.4975683"><ele>75.0</ele><time>2026-04-08T06:44:43.095Z</time></trkpt><trkpt lat="41.9164283" lon="12.4976333"><ele>75.0</ele><time>2026-04-08T06:44:45.095Z</time></trkpt><trkpt lat="41.916475" lon="12.4976967"><ele>75.0</ele><time>2026-04-08T06:44:48.095Z</time></trkpt><trkpt lat="41.91649" lon="12.49782"><ele>75.0</ele><time>2026-04-08T06:45:09.096Z</time></trkpt><trkpt lat="41.9165233" lon="12.4979317"><ele>75.0</ele><time>2026-04-08T06:45:12.095Z</time></trkpt><trkpt lat="41.9165833" lon="12.49801"><ele>75.0</ele><time>2026-04-08T06:45:14.096Z</time></trkpt><trkpt lat="41.9166517" lon="12.4981017"><ele>75.0</ele><time>2026-04-08T06:45:16.095Z</time></trkpt><trkpt lat="41.9167067" lon="12.4982033"><ele>75.28571428571428</ele><time>2026-04-08T06:45:18.095Z</time></trkpt><trkpt lat="41.916775" lon="12.4982767"><ele>75.57142857142857</ele><time>2026-04-08T06:45:20.095Z</time></trkpt><trkpt lat="41.916835" lon="12.4983167"><ele>75.85714285714286</ele><time>2026-04-08T06:45:24.095Z</time></trkpt><trkpt lat="41.9168617" lon="12.4984017"><ele>76.14285714285714</ele><time>2026-04-08T06:45:29.095Z</time></trkpt><trkpt lat="41.91691" lon="12.4984833"><ele>76.42857142857143</ele><time>2026-04-08T06:45:33.096Z</time></trkpt><trkpt lat="41.9169717" lon="12.498555"><ele>76.71428571428571</ele><time>2026-04-08T06:45:36.095Z</time></trkpt><trkpt lat="41.9170317" lon="12.4985867"><ele>77.0</ele><time>2026-04-08T06:45:41.095Z</time></trkpt><trkpt lat="41.91709" lon="12.49862"><ele>77.0</ele><time>2026-04-08T06:45:45.095Z</time></trkpt><trkpt lat="41.9171717" lon="12.4986883"><ele>77.0</ele><time>2026-04-08T06:45:50.095Z</time></trkpt><trkpt lat="41.917235" lon="12.498745"><ele>77.0</ele><time>2026-04-08T06:45:52.095Z</time></trkpt><trkpt lat="41.9172983" lon="12.498815"><ele>77.0</ele><time>2026-04-08T06:45:55.095Z</time></trkpt><trkpt lat="41.9173583" lon="12.49888"><ele>77.0</ele><time>2026-04-08T06:45:58.096Z</time></trkpt><trkpt lat="41.9174233" lon="12.4989583"><ele>77.0</ele><time>2026-04-08T06:46:00.096Z</time></trkpt><trkpt lat="41.9174933" lon="12.4990517"><ele>76.66666666666667</ele><time>2026-04-08T06:46:02.095Z</time></trkpt><trkpt lat="41.9175567" lon="12.49915"><ele>76.33333333333334</ele><time>2026-04-08T06:46:04.095Z</time></trkpt><trkpt lat="41.91761" lon="12.4992167"><ele>76.0</ele><time>2026-04-08T06:46:06.095Z</time></trkpt><trkpt lat="41.9176533" lon="12.4992833"><ele>75.66666666666667</ele><time>2026-04-08T06:46:08.095Z</time></trkpt><trkpt lat="41.91771" lon="12.4993733"><ele>75.33333333333333</ele><time>2026-04-08T06:46:10.095Z</time></trkpt><trkpt lat="41.917765" lon="12.499475"><ele>75.0</ele><time>2026-04-08T06:46:12.095Z</time></trkpt><trkpt lat="41.917825" lon="12.4995667"><ele>74.66666666666667</ele><time>2026-04-08T06:46:14.095Z</time></trkpt><trkpt lat="41.9178717" lon="12.4996383"><ele>74.33333333333333</ele><time>2026-04-08T06:46:16.096Z</time></trkpt><trkpt lat="41.9179433" lon="12.499755"><ele>74.0</ele><time>2026-04-08T06:46:42.094Z</time></trkpt><trkpt lat="41.9180067" lon="12.499805"><ele>73.66666666666666</ele><time>2026-04-08T06:46:46.094Z</time></trkpt><trkpt lat="41.9180767" lon="12.499865"><ele>73.33333333333333</ele><time>2026-04-08T06:46:50.094Z</time></trkpt><trkpt lat="41.91813" lon="12.499945"><ele>73.0</ele><time>2026-04-08T06:46:52.094Z</time></trkpt><trkpt lat="41.9181933" lon="12.5000217"><ele>73.0</ele><time>2026-04-08T06:46:54.095Z</time></trkpt><trkpt lat="41.9182483" lon="12.5001167"><ele>73.0</ele><time>2026-04-08T06:46:56.094Z</time></trkpt><trkpt lat="41.9183017" lon="12.5002167"><ele>73.0</ele><time>2026-04-08T06:46:58.094Z</time></trkpt><trkpt lat="41.91836" lon="12.5003"><ele>73.0</ele><time>2026-04-08T06:47:00.095Z</time></trkpt><trkpt lat="41.9184217" lon="12.50039"><ele>73.0</ele><time>2026-04-08T06:47:02.094Z</time></trkpt><trkpt lat="41.9184783" lon="12.5004783"><ele>73.0</ele><time>2026-04-08T06:47:04.095Z</time></trkpt><trkpt lat="41.9185317" lon="12.5005633"><ele>72.16666666666666</ele><time>2026-04-08T06:47:06.094Z</time></trkpt><trkpt lat="41.9185717" lon="12.5006367"><ele>71.33333333333333</ele><time>2026-04-08T06:47:08.094Z</time></trkpt><trkpt lat="41.9186333" lon="12.5007083"><ele>70.5</ele><time>2026-04-08T06:47:12.094Z</time></trkpt><trkpt lat="41.9187067" lon="12.5007467"><ele>69.66666666666667</ele><time>2026-04-08T06:47:17.094Z</time></trkpt><trkpt lat="41.9187567" lon="12.5008417"><ele>68.83333333333334</ele><time>2026-04-08T06:47:20.095Z</time></trkpt><trkpt lat="41.9188117" lon="12.5009267"><ele>68.0</ele><time>2026-04-08T06:47:23.094Z</time></trkpt><trkpt lat="41.918865" lon="12.50103"><ele>67.99999999999999</ele><time>2026-04-08T06:47:26.094Z</time></trkpt><trkpt lat="41.9189117" lon="12.5010933"><ele>68.0</ele><time>2026-04-08T06:47:28.094Z</time></trkpt><trkpt lat="41.91897" lon="12.5011767"><ele>68.0</ele><time>2026-04-08T06:47:31.094Z</time></trkpt><trkpt lat="41.919005" lon="12.5012767"><ele>68.0</ele><time>2026-04-08T06:47:34.094Z</time></trkpt><trkpt lat="41.9190417" lon="12.5013517"><ele>68.0</ele><time>2026-04-08T06:47:37.094Z</time></trkpt><trkpt lat="41.9190717" lon="12.5014367"><ele>67.99999999999999</ele><time>2026-04-08T06:47:41.094Z</time></trkpt><trkpt lat="41.919125" lon="12.501505"><ele>68.0</ele><time>2026-04-08T06:47:47.094Z</time></trkpt><trkpt lat="41.919165" lon="12.5015767"><ele>68.0</ele><time>2026-04-08T06:47:51.094Z</time></trkpt><trkpt lat="41.91921" lon="12.5016417"><ele>68.0</ele><time>2026-04-08T06:47:54.094Z</time></trkpt><trkpt lat="41.9192767" lon="12.50171"><ele>68.0</ele><time>2026-04-08T06:47:57.094Z</time></trkpt><trkpt lat="41.9193317" lon="12.5017933"><ele>68.0</ele><time>2026-04-08T06:48:02.094Z</time></trkpt><trkpt lat="41.9193867" lon="12.50186"><ele>68.0</ele><time>2026-04-08T06:48:04.094Z</time></trkpt><trkpt lat="41.9194333" lon="12.501945"><ele>68.0</ele><time>2026-04-08T06:48:06.094Z</time></trkpt><trkpt lat="41.9194833" lon="12.5020383"><ele>67.83333333333334</ele><time>2026-04-08T06:48:08.095Z</time></trkpt><trkpt lat="41.9195433" lon="12.5021217"><ele>67.66666666666667</ele><time>2026-04-08T06:48:10.094Z</time></trkpt><trkpt lat="41.9196083" lon="12.502195"><ele>67.5</ele><time>2026-04-08T06:48:12.095Z</time></trkpt><trkpt lat="41.9196517" lon="12.5022817"><ele>67.33333333333333</ele><time>2026-04-08T06:48:14.095Z</time></trkpt><trkpt lat="41.9197017" lon="12.5023767"><ele>67.16666666666666</ele><time>2026-04-08T06:48:16.094Z</time></trkpt><trkpt lat="41.9197433" lon="12.50245"><ele>67.0</ele><time>2026-04-08T06:48:18.094Z</time></trkpt><trkpt lat="41.9197933" lon="12.502505"><ele>67.0</ele><time>2026-04-08T06:48:21.094Z</time></trkpt><trkpt lat="41.9198767" lon="12.5025883"><ele>67.0</ele><time>2026-04-08T06:48:24.094Z</time></trkpt><trkpt lat="41.91992" lon="12.5026567"><ele>67.0</ele><time>2026-04-08T06:48:27.094Z</time></trkpt><trkpt lat="41.9200017" lon="12.50279"><ele>67.0</ele><time>2026-04-08T06:48:54.094Z</time></trkpt><trkpt lat="41.9200483" lon="12.502895"><ele>67.0</ele><time>2026-04-08T06:48:57.094Z</time></trkpt><trkpt lat="41.9201133" lon="12.502965"><ele>65.2</ele><time>2026-04-08T06:49:00.094Z</time></trkpt><trkpt lat="41.9201667" lon="12.5030233"><ele>63.400000000000006</ele><time>2026-04-08T06:49:04.095Z</time></trkpt><trkpt lat="41.92022" lon="12.5031067"><ele>61.599999999999994</ele><time>2026-04-08T06:49:07.095Z</time></trkpt><trkpt lat="41.9202783" lon="12.5031933"><ele>59.8</ele><time>2026-04-08T06:49:09.094Z</time></trkpt><trkpt lat="41.9203533" lon="12.5033033"><ele>58.0</ele><time>2026-04-08T06:49:11.095Z</time></trkpt><trkpt lat="41.9204317" lon="12.50343"><ele>57.99999999999999</ele><time>2026-04-08T06:49:13.094Z</time></trkpt><trkpt lat="41.9205217" lon="12.5035583"><ele>58.0</ele><time>2026-04-08T06:49:15.094Z</time></trkpt><trkpt lat="41.9205683" lon="12.5036267"><ele>58.0</ele><time>2026-04-08T06:49:16.094Z</time></trkpt><trkpt lat="41.9206133" lon="12.503695"><ele>58.0</ele><time>2026-04-08T06:49:17.094Z</time></trkpt><trkpt lat="41.9206567" lon="12.5037683"><ele>57.99999999999999</ele><time>2026-04-08T06:49:18.094Z</time></trkpt><trkpt lat="41.9206983" lon="12.50384"><ele>58.0</ele><time>2026-04-08T06:49:19.094Z</time></trkpt><trkpt lat="41.9207417" lon="12.5039033"><ele>58.49999999999999</ele><time>2026-04-08T06:49:20.094Z</time></trkpt><trkpt lat="41.9208233" lon="12.5040117"><ele>59.0</ele><time>2026-04-08T06:49:22.094Z</time></trkpt><trkpt lat="41.9208983" lon="12.5040933"><ele>59.5</ele><time>2026-04-08T06:49:24.095Z</time></trkpt><trkpt lat="41.9209517" lon="12.50416"><ele>60.0</ele><time>2026-04-08T06:49:26.094Z</time></trkpt><trkpt lat="41.9210017" lon="12.5042233"><ele>60.49999999999999</ele><time>2026-04-08T06:49:30.094Z</time></trkpt><trkpt lat="41.9210533" lon="12.504275"><ele>61.0</ele><time>2026-04-08T06:49:33.094Z</time></trkpt><trkpt lat="41.9211217" lon="12.5043317"><ele>60.83333333333333</ele><time>2026-04-08T06:49:36.094Z</time></trkpt><trkpt lat="41.9211733" lon="12.5043917"><ele>60.666666666666664</ele><time>2026-04-08T06:49:39.095Z</time></trkpt><trkpt lat="41.921215" lon="12.5044683"><ele>60.5</ele><time>2026-04-08T06:49:43.094Z</time></trkpt><trkpt lat="41.9212867" lon="12.50457"><ele>60.33333333333333</ele><time>2026-04-08T06:49:46.094Z</time></trkpt><trkpt lat="41.921355" lon="12.5046633"><ele>60.166666666666664</ele><time>2026-04-08T06:49:48.094Z</time></trkpt><trkpt lat="41.9214217" lon="12.5047483"><ele>60.0</ele><time>2026-04-08T06:49:50.094Z</time></trkpt><trkpt lat="41.9214783" lon="12.504835"><ele>60.0</ele><time>2026-04-08T06:49:53.094Z</time></trkpt><trkpt lat="41.9215333" lon="12.5048967"><ele>60.0</ele><time>2026-04-08T06:49:58.094Z</time></trkpt><trkpt lat="41.9215917" lon="12.5049733"><ele>60.0</ele><time>2026-04-08T06:50:02.094Z</time></trkpt><trkpt lat="41.9216883" lon="12.505115"><ele>60.0</ele><time>2026-04-08T06:50:54.094Z</time></trkpt><trkpt lat="41.92174" lon="12.5052133"><ele>60.0</ele><time>2026-04-08T06:50:57.094Z</time></trkpt><trkpt lat="41.9218017" lon="12.5053183"><ele>59.4</ele><time>2026-04-08T06:51:00.094Z</time></trkpt><trkpt lat="41.9218717" lon="12.5054167"><ele>58.8</ele><time>2026-04-08T06:51:02.094Z</time></trkpt><trkpt lat="41.9219517" lon="12.5055017"><ele>58.2</ele><time>2026-04-08T06:51:04.095Z</time></trkpt><trkpt lat="41.9220417" lon="12.505585"><ele>57.6</ele><time>2026-04-08T06:51:06.094Z</time></trkpt><trkpt lat="41.9221217" lon="12.505655"><ele>57.0</ele><time>2026-04-08T06:51:08.094Z</time></trkpt><trkpt lat="41.922185" lon="12.5057183"><ele>57.0</ele><time>2026-04-08T06:51:10.094Z</time></trkpt><trkpt lat="41.9222333" lon="12.505785"><ele>57.0</ele><time>2026-04-08T06:51:14.094Z</time></trkpt><trkpt lat="41.922335" lon="12.5058583"><ele>57.0</ele><time>2026-04-08T06:51:35.094Z</time></trkpt><trkpt lat="41.9223817" lon="12.50592"><ele>57.0</ele><time>2026-04-08T06:51:37.094Z</time></trkpt><trkpt lat="41.92245" lon="12.505985"><ele>57.0</ele><time>2026-04-08T06:51:39.094Z</time></trkpt><trkpt lat="41.9225383" lon="12.5060733"><ele>57.0</ele><time>2026-04-08T06:51:41.094Z</time></trkpt><trkpt lat="41.9226283" lon="12.50616"><ele>56.8</ele><time>2026-04-08T06:51:43.095Z</time></trkpt><trkpt lat="41.92271" lon="12.5062583"><ele>56.6</ele><time>2026-04-08T06:51:45.095Z</time></trkpt><trkpt lat="41.92279" lon="12.50638"><ele>56.39999999999999</ele><time>2026-04-08T06:51:47.095Z</time></trkpt><trkpt lat="41.9228533" lon="12.5064367"><ele>56.199999999999996</ele><time>2026-04-08T06:51:48.094Z</time></trkpt><trkpt lat="41.922915" lon="12.5065067"><ele>56.0</ele><time>2026-04-08T06:51:49.094Z</time></trkpt><trkpt lat="41.9229683" lon="12.50657"><ele>56.00000000000001</ele><time>2026-04-08T06:51:50.094Z</time></trkpt><trkpt lat="41.9230433" lon="12.5066633"><ele>56.0</ele><time>2026-04-08T06:51:52.094Z</time></trkpt><trkpt lat="41.92309" lon="12.5067267"><ele>56.0</ele><time>2026-04-08T06:51:54.094Z</time></trkpt><trkpt lat="41.9231633" lon="12.506775"><ele>56.0</ele><time>2026-04-08T06:51:57.094Z</time></trkpt><trkpt lat="41.9232017" lon="12.5068783"><ele>56.00000000000001</ele><time>2026-04-08T06:51:59.094Z</time></trkpt><trkpt lat="41.9232133" lon="12.5070167"><ele>56.0</ele><time>2026-04-08T06:52:01.094Z</time></trkpt><trkpt lat="41.9232383" lon="12.50715"><ele>55.8</ele><time>2026-04-08T06:52:03.094Z</time></trkpt><trkpt lat="41.923285" lon="12.5072467"><ele>55.599999999999994</ele><time>2026-04-08T06:52:05.094Z</time></trkpt><trkpt lat="41.9233533" lon="12.507285"><ele>55.4</ele><time>2026-04-08T06:52:07.095Z</time></trkpt><trkpt lat="41.9234567" lon="12.5072483"><ele>55.2</ele><time>2026-04-08T06:52:09.094Z</time></trkpt><trkpt lat="41.9235417" lon="12.507215"><ele>55.0</ele><time>2026-04-08T06:52:11.094Z</time></trkpt><trkpt lat="41.9236583" lon="12.5072283"><ele>55.8</ele><time>2026-04-08T06:52:14.095Z</time></trkpt><trkpt lat="41.92372" lon="12.507285"><ele>56.6</ele><time>2026-04-08T06:52:16.095Z</time></trkpt><trkpt lat="41.9237733" lon="12.5073717"><ele>57.400000000000006</ele><time>2026-04-08T06:52:18.094Z</time></trkpt><trkpt lat="41.9238717" lon="12.5075033"><ele>58.2</ele><time>2026-04-08T06:52:29.094Z</time></trkpt><trkpt lat="41.923955" lon="12.50757"><ele>59.0</ele><time>2026-04-08T06:52:31.094Z</time></trkpt><trkpt lat="41.9240517" lon="12.507665"><ele>59.00000000000001</ele><time>2026-04-08T06:52:33.094Z</time></trkpt><trkpt lat="41.924135" lon="12.5077317"><ele>59.0</ele><time>2026-04-08T06:52:35.094Z</time></trkpt><trkpt lat="41.9242133" lon="12.5078"><ele>59.0</ele><time>2026-04-08T06:52:37.094Z</time></trkpt><trkpt lat="41.924285" lon="12.5078733"><ele>59.0</ele><time>2026-04-08T06:52:39.095Z</time></trkpt><trkpt lat="41.92434" lon="12.507925"><ele>59.00000000000001</ele><time>2026-04-08T06:52:41.094Z</time></trkpt><trkpt lat="41.9243833" lon="12.508005"><ele>59.0</ele><time>2026-04-08T06:52:43.094Z</time></trkpt><trkpt lat="41.92446" lon="12.5080783"><ele>58.2</ele><time>2026-04-08T06:52:45.094Z</time></trkpt><trkpt lat="41.924555" lon="12.5081667"><ele>57.400000000000006</ele><time>2026-04-08T06:52:47.093Z</time></trkpt><trkpt lat="41.9246317" lon="12.5082267"><ele>56.6</ele><time>2026-04-08T06:52:49.093Z</time></trkpt><trkpt lat="41.9246933" lon="12.5082783"><ele>55.8</ele><time>2026-04-08T06:52:51.093Z</time></trkpt><trkpt lat="41.9247783" lon="12.5083483"><ele>55.0</ele><time>2026-04-08T06:53:09.093Z</time></trkpt><trkpt lat="41.9248467" lon="12.5083967"><ele>54.99999999999999</ele><time>2026-04-08T06:53:11.093Z</time></trkpt><trkpt lat="41.9249233" lon="12.5084783"><ele>55.0</ele><time>2026-04-08T06:53:13.093Z</time></trkpt><trkpt lat="41.925015" lon="12.5085533"><ele>55.0</ele><time>2026-04-08T06:53:15.093Z</time></trkpt><trkpt lat="41.9250883" lon="12.5086"><ele>55.0</ele><time>2026-04-08T06:53:17.093Z</time></trkpt><trkpt lat="41.92515" lon="12.5086333"><ele>54.99999999999999</ele><time>2026-04-08T06:53:19.093Z</time></trkpt><trkpt lat="41.925205" lon="12.50869"><ele>55.0</ele><time>2026-04-08T06:53:21.093Z</time></trkpt><trkpt lat="41.9252817" lon="12.508785"><ele>55.6</ele><time>2026-04-08T06:53:23.094Z</time></trkpt><trkpt lat="41.9253617" lon="12.508855"><ele>56.2</ele><time>2026-04-08T06:53:25.093Z</time></trkpt><trkpt lat="41.92545" lon="12.508945"><ele>56.8</ele><time>2026-04-08T06:53:27.094Z</time></trkpt><trkpt lat="41.925535" lon="12.509015"><ele>57.4</ele><time>2026-04-08T06:53:29.093Z</time></trkpt><trkpt lat="41.9255933" lon="12.5090933"><ele>58.0</ele><time>2026-04-08T06:53:31.093Z</time></trkpt><trkpt lat="41.92565" lon="12.5091567"><ele>57.99999999999999</ele><time>2026-04-08T06:53:34.093Z</time></trkpt><trkpt lat="41.9257167" lon="12.509195"><ele>58.0</ele><time>2026-04-08T06:53:37.093Z</time></trkpt><trkpt lat="41.9257917" lon="12.5092433"><ele>58.0</ele><time>2026-04-08T06:53:39.094Z</time></trkpt><trkpt lat="41.925825" lon="12.5093267"><ele>58.0</ele><time>2026-04-08T06:53:41.093Z</time></trkpt><trkpt lat="41.9258917" lon="12.5094033"><ele>57.99999999999999</ele><time>2026-04-08T06:53:43.093Z</time></trkpt><trkpt lat="41.925985" lon="12.5095"><ele>58.0</ele><time>2026-04-08T06:53:45.093Z</time></trkpt><trkpt lat="41.9260817" lon="12.50962"><ele>57.0</ele><time>2026-04-08T06:53:47.093Z</time></trkpt><trkpt lat="41.9261233" lon="12.5096983"><ele>56.0</ele><time>2026-04-08T06:53:48.093Z</time></trkpt><trkpt lat="41.9261733" lon="12.5097583"><ele>55.0</ele><time>2026-04-08T06:53:49.093Z</time></trkpt><trkpt lat="41.9262683" lon="12.509865"><ele>54.0</ele><time>2026-04-08T06:53:51.094Z</time></trkpt><trkpt lat="41.92637" lon="12.5099433"><ele>53.0</ele><time>2026-04-08T06:53:53.093Z</time></trkpt><trkpt lat="41.9264833" lon="12.5100017"><ele>53.00000000000001</ele><time>2026-04-08T06:53:55.093Z</time></trkpt><trkpt lat="41.926545" lon="12.5100483"><ele>53.0</ele><time>2026-04-08T06:53:56.093Z</time></trkpt><trkpt lat="41.9266067" lon="12.5101017"><ele>53.0</ele><time>2026-04-08T06:53:57.094Z</time></trkpt><trkpt lat="41.9266667" lon="12.5101583"><ele>53.0</ele><time>2026-04-08T06:53:58.093Z</time></trkpt><trkpt lat="41.9267383" lon="12.5102483"><ele>53.00000000000001</ele><time>2026-04-08T06:53:59.093Z</time></trkpt><trkpt lat="41.9268033" lon="12.5103267"><ele>53.0</ele><time>2026-04-08T06:54:00.093Z</time></trkpt><trkpt lat="41.9268633" lon="12.510395"><ele>52.599999999999994</ele><time>2026-04-08T06:54:01.093Z</time></trkpt><trkpt lat="41.9269167" lon="12.5104567"><ele>52.199999999999996</ele><time>2026-04-08T06:54:02.093Z</time></trkpt><trkpt lat="41.9270083" lon="12.5105433"><ele>51.8</ele><time>2026-04-08T06:54:04.094Z</time></trkpt><trkpt lat="41.9270717" lon="12.51061"><ele>51.4</ele><time>2026-04-08T06:54:06.094Z</time></trkpt><trkpt lat="41.9271617" lon="12.5106983"><ele>51.0</ele><time>2026-04-08T06:54:29.093Z</time></trkpt><trkpt lat="41.9272367" lon="12.510735"><ele>51.0</ele><time>2026-04-08T06:54:31.093Z</time></trkpt><trkpt lat="41.9273183" lon="12.5107717"><ele>51.0</ele><time>2026-04-08T06:54:33.094Z</time></trkpt><trkpt lat="41.92741" lon="12.510795"><ele>51.0</ele><time>2026-04-08T06:54:35.093Z</time></trkpt><trkpt lat="41.9274733" lon="12.5108683"><ele>51.0</ele><time>2026-04-08T06:54:37.093Z</time></trkpt><trkpt lat="41.9275517" lon="12.5109383"><ele>51.0</ele><time>2026-04-08T06:54:39.094Z</time></trkpt><trkpt lat="41.927645" lon="12.5110367"><ele>51.166666666666664</ele><time>2026-04-08T06:54:41.093Z</time></trkpt><trkpt lat="41.9276967" lon="12.5110983"><ele>51.33333333333333</ele><time>2026-04-08T06:54:42.093Z</time></trkpt><trkpt lat="41.9278067" lon="12.5111983"><ele>51.5</ele><time>2026-04-08T06:54:44.093Z</time></trkpt><trkpt lat="41.9278617" lon="12.51125"><ele>51.666666666666664</ele><time>2026-04-08T06:54:45.093Z</time></trkpt><trkpt lat="41.9279183" lon="12.5112917"><ele>51.83333333333333</ele><time>2026-04-08T06:54:46.093Z</time></trkpt><trkpt lat="41.9279617" lon="12.511355"><ele>52.0</ele><time>2026-04-08T06:54:47.093Z</time></trkpt><trkpt lat="41.9280333" lon="12.5114183"><ele>51.2</ele><time>2026-04-08T06:54:48.093Z</time></trkpt><trkpt lat="41.9281133" lon="12.5114967"><ele>50.400000000000006</ele><time>2026-04-08T06:54:50.093Z</time></trkpt><trkpt lat="41.9282083" lon="12.511575"><ele>49.599999999999994</ele><time>2026-04-08T06:54:52.094Z</time></trkpt><trkpt lat="41.928305" lon="12.5116333"><ele>48.8</ele><time>2026-04-08T06:54:54.093Z</time></trkpt><trkpt lat="41.928405" lon="12.5117083"><ele>48.0</ele><time>2026-04-08T06:54:56.094Z</time></trkpt><trkpt lat="41.928495" lon="12.511805"><ele>47.4</ele><time>2026-04-08T06:54:58.093Z</time></trkpt><trkpt lat="41.9285633" lon="12.5118767"><ele>46.8</ele><time>2026-04-08T06:55:00.094Z</time></trkpt><trkpt lat="41.928625" lon="12.5119267"><ele>46.2</ele><time>2026-04-08T06:55:02.093Z</time></trkpt><trkpt lat="41.9287283" lon="12.5120483"><ele>45.6</ele><time>2026-04-08T06:55:21.094Z</time></trkpt><trkpt lat="41.92879" lon="12.5121267"><ele>45.0</ele><time>2026-04-08T06:55:23.093Z</time></trkpt><trkpt lat="41.9288667" lon="12.5122017"><ele>44.6</ele><time>2026-04-08T06:55:25.093Z</time></trkpt><trkpt lat="41.9289417" lon="12.5122833"><ele>44.2</ele><time>2026-04-08T06:55:27.093Z</time></trkpt><trkpt lat="41.9290217" lon="12.5123667"><ele>43.8</ele><time>2026-04-08T06:55:29.093Z</time></trkpt><trkpt lat="41.9290767" lon="12.5124567"><ele>43.4</ele><time>2026-04-08T06:55:31.093Z</time></trkpt><trkpt lat="41.9291467" lon="12.5125367"><ele>43.0</ele><time>2026-04-08T06:55:33.094Z</time></trkpt><trkpt lat="41.9292133" lon="12.5126183"><ele>43.2</ele><time>2026-04-08T06:55:35.093Z</time></trkpt><trkpt lat="41.92928" lon="12.5127133"><ele>43.4</ele><time>2026-04-08T06:55:37.093Z</time></trkpt><trkpt lat="41.92934" lon="12.5128267"><ele>43.6</ele><time>2026-04-08T06:55:39.094Z</time></trkpt><trkpt lat="41.9294133" lon="12.51296"><ele>43.800000000000004</ele><time>2026-04-08T06:55:41.093Z</time></trkpt><trkpt lat="41.9294683" lon="12.5130817"><ele>44.0</ele><time>2026-04-08T06:55:43.093Z</time></trkpt><trkpt lat="41.9294817" lon="12.513165"><ele>44.57142857142857</ele><time>2026-04-08T06:55:44.093Z</time></trkpt><trkpt lat="41.929485" lon="12.5132517"><ele>45.14285714285714</ele><time>2026-04-08T06:55:45.093Z</time></trkpt><trkpt lat="41.9294817" lon="12.51334"><ele>45.71428571428571</ele><time>2026-04-08T06:55:46.093Z</time></trkpt><trkpt lat="41.9294833" lon="12.5134367"><ele>46.285714285714285</ele><time>2026-04-08T06:55:47.093Z</time></trkpt><trkpt lat="41.9294767" lon="12.5135333"><ele>46.857142857142854</ele><time>2026-04-08T06:55:48.093Z</time></trkpt><trkpt lat="41.92946" lon="12.51362"><ele>47.42857142857142</ele><time>2026-04-08T06:55:49.093Z</time></trkpt><trkpt lat="41.9294517" lon="12.513715"><ele>48.0</ele><time>2026-04-08T06:55:50.094Z</time></trkpt><trkpt lat="41.929455" lon="12.5138067"><ele>48.0</ele><time>2026-04-08T06:55:51.094Z</time></trkpt><trkpt lat="41.92945" lon="12.5139617"><ele>48.0</ele><time>2026-04-08T06:55:53.093Z</time></trkpt><trkpt lat="41.92942" lon="12.5140883"><ele>48.0</ele><time>2026-04-08T06:55:55.093Z</time></trkpt><trkpt lat="41.929415" lon="12.514215"><ele>48.0</ele><time>2026-04-08T06:55:57.093Z</time></trkpt><trkpt lat="41.9294017" lon="12.5143033"><ele>48.0</ele><time>2026-04-08T06:55:59.093Z</time></trkpt><trkpt lat="41.9293817" lon="12.5145383"><ele>47.333333333333336</ele><time>2026-04-08T06:56:17.093Z</time></trkpt><trkpt lat="41.9293633" lon="12.5147067"><ele>46.666666666666664</ele><time>2026-04-08T06:56:19.094Z</time></trkpt><trkpt lat="41.929335" lon="12.5148067"><ele>46.0</ele><time>2026-04-08T06:56:20.093Z</time></trkpt><trkpt lat="41.929305" lon="12.5149083"><ele>45.33333333333333</ele><time>2026-04-08T06:56:21.093Z</time></trkpt><trkpt lat="41.92927" lon="12.5149933"><ele>44.666666666666664</ele><time>2026-04-08T06:56:22.093Z</time></trkpt><trkpt lat="41.9292517" lon="12.51508"><ele>44.0</ele><time>2026-04-08T06:56:23.093Z</time></trkpt><trkpt lat="41.9292367" lon="12.5151667"><ele>43.6</ele><time>2026-04-08T06:56:24.093Z</time></trkpt><trkpt lat="41.9292183" lon="12.5152517"><ele>43.2</ele><time>2026-04-08T06:56:25.093Z</time></trkpt><trkpt lat="41.9292017" lon="12.515415"><ele>42.800000000000004</ele><time>2026-04-08T06:56:27.093Z</time></trkpt><trkpt lat="41.9291833" lon="12.51556"><ele>42.400000000000006</ele><time>2026-04-08T06:56:29.093Z</time></trkpt><trkpt lat="41.9291767" lon="12.5156867"><ele>42.0</ele><time>2026-04-08T06:56:31.093Z</time></trkpt><trkpt lat="41.9291533" lon="12.5157733"><ele>41.333333333333336</ele><time>2026-04-08T06:56:33.094Z</time></trkpt><trkpt lat="41.9291017" lon="12.5158517"><ele>40.666666666666664</ele><time>2026-04-08T06:57:05.093Z</time></trkpt><trkpt lat="41.92907" lon="12.5159367"><ele>40.0</ele><time>2026-04-08T06:57:08.093Z</time></trkpt><trkpt lat="41.9290433" lon="12.5160483"><ele>39.33333333333333</ele><time>2026-04-08T06:57:11.093Z</time></trkpt><trkpt lat="41.92904" lon="12.5161417"><ele>38.666666666666664</ele><time>2026-04-08T06:57:13.093Z</time></trkpt><trkpt lat="41.9290567" lon="12.5162417"><ele>38.0</ele><time>2026-04-08T06:57:16.093Z</time></trkpt><trkpt lat="41.9291267" lon="12.516345"><ele>38.0</ele><time>2026-04-08T06:57:20.093Z</time></trkpt><trkpt lat="41.929215" lon="12.516435"><ele>38.0</ele><time>2026-04-08T06:57:22.093Z</time></trkpt><trkpt lat="41.9293067" lon="12.5165267"><ele>38.0</ele><time>2026-04-08T06:57:24.093Z</time></trkpt><trkpt lat="41.929405" lon="12.51661"><ele>38.0</ele><time>2026-04-08T06:57:26.093Z</time></trkpt><trkpt lat="41.9295083" lon="12.516685"><ele>38.166666666666664</ele><time>2026-04-08T06:57:28.093Z</time></trkpt><trkpt lat="41.9295817" lon="12.5167517"><ele>38.33333333333333</ele><time>2026-04-08T06:57:30.093Z</time></trkpt><trkpt lat="41.9296417" lon="12.5167983"><ele>38.5</ele><time>2026-04-08T06:57:33.093Z</time></trkpt><trkpt lat="41.9297067" lon="12.5168867"><ele>38.666666666666664</ele><time>2026-04-08T06:57:45.094Z</time></trkpt><trkpt lat="41.929775" lon="12.5169567"><ele>38.833333333333336</ele><time>2026-04-08T06:57:47.093Z</time></trkpt><trkpt lat="41.9298617" lon="12.5170517"><ele>39.0</ele><time>2026-04-08T06:57:49.094Z</time></trkpt><trkpt lat="41.9299533" lon="12.5171383"><ele>39.0</ele><time>2026-04-08T06:57:51.093Z</time></trkpt><trkpt lat="41.9300533" lon="12.5172367"><ele>39.0</ele><time>2026-04-08T06:57:53.093Z</time></trkpt><trkpt lat="41.9301" lon="12.5173"><ele>39.0</ele><time>2026-04-08T06:57:54.093Z</time></trkpt><trkpt lat="41.93016" lon="12.51735"><ele>39.0</ele><time>2026-04-08T06:57:55.093Z</time></trkpt><trkpt lat="41.93026" lon="12.517445"><ele>39.0</ele><time>2026-04-08T06:57:57.093Z</time></trkpt><trkpt lat="41.9303467" lon="12.517535"><ele>39.4</ele><time>2026-04-08T06:57:59.093Z</time></trkpt><trkpt lat="41.9304417" lon="12.5176183"><ele>39.8</ele><time>2026-04-08T06:58:01.093Z</time></trkpt><trkpt lat="41.9305217" lon="12.5176983"><ele>40.199999999999996</ele><time>2026-04-08T06:58:03.093Z</time></trkpt><trkpt lat="41.930585" lon="12.5177483"><ele>40.599999999999994</ele><time>2026-04-08T06:58:05.093Z</time></trkpt><trkpt lat="41.9306933" lon="12.5177867"><ele>41.0</ele><time>2026-04-08T06:58:12.093Z</time></trkpt><trkpt lat="41.93076" lon="12.5178133"><ele>41.0</ele><time>2026-04-08T06:58:14.093Z</time></trkpt><trkpt lat="41.9308367" lon="12.5178883"><ele>41.0</ele><time>2026-04-08T06:58:16.093Z</time></trkpt><trkpt lat="41.930905" lon="12.5179783"><ele>41.0</ele><time>2026-04-08T06:58:18.093Z</time></trkpt><trkpt lat="41.9309667" lon="12.5180433"><ele>41.0</ele><time>2026-04-08T06:58:20.093Z</time></trkpt><trkpt lat="41.9310267" lon="12.5181033"><ele>41.0</ele><time>2026-04-08T06:58:22.094Z</time></trkpt><trkpt lat="41.9310817" lon="12.5181817"><ele>41.0</ele><time>2026-04-08T06:58:24.093Z</time></trkpt><trkpt lat="41.93114" lon="12.518265"><ele>41.33333333333333</ele><time>2026-04-08T06:58:26.093Z</time></trkpt><trkpt lat="41.93119" lon="12.51832"><ele>41.666666666666664</ele><time>2026-04-08T06:58:28.092Z</time></trkpt><trkpt lat="41.93125" lon="12.51839"><ele>42.0</ele><time>2026-04-08T06:58:46.092Z</time></trkpt><trkpt lat="41.93132" lon="12.518505"><ele>42.333333333333336</ele><time>2026-04-08T06:58:48.092Z</time></trkpt><trkpt lat="41.9314133" lon="12.518615"><ele>42.66666666666667</ele><time>2026-04-08T06:58:50.092Z</time></trkpt><trkpt lat="41.9314683" lon="12.5186683"><ele>43.0</ele><time>2026-04-08T06:58:51.092Z</time></trkpt><trkpt lat="41.9315233" lon="12.5187267"><ele>43.4</ele><time>2026-04-08T06:58:52.092Z</time></trkpt><trkpt lat="41.93157" lon="12.5187883"><ele>43.8</ele><time>2026-04-08T06:58:53.092Z</time></trkpt><trkpt lat="41.93166" lon="12.5188983"><ele>44.2</ele><time>2026-04-08T06:58:55.093Z</time></trkpt><trkpt lat="41.9317417" lon="12.5190233"><ele>44.6</ele><time>2026-04-08T06:58:57.092Z</time></trkpt><trkpt lat="41.93179" lon="12.5190783"><ele>45.0</ele><time>2026-04-08T06:58:58.092Z</time></trkpt><trkpt lat="41.9318633" lon="12.5192067"><ele>44.5</ele><time>2026-04-08T06:59:00.092Z</time></trkpt><trkpt lat="41.9319367" lon="12.51934"><ele>44.0</ele><time>2026-04-08T06:59:02.092Z</time></trkpt><trkpt lat="41.9319767" lon="12.5194067"><ele>43.5</ele><time>2026-04-08T06:59:03.092Z</time></trkpt><trkpt lat="41.93206" lon="12.5195317"><ele>43.0</ele><time>2026-04-08T06:59:05.092Z</time></trkpt><trkpt lat="41.9321083" lon="12.5195967"><ele>42.5</ele><time>2026-04-08T06:59:06.093Z</time></trkpt><trkpt lat="41.932155" lon="12.519665"><ele>42.0</ele><time>2026-04-08T06:59:07.092Z</time></trkpt><trkpt lat="41.9322033" lon="12.5197233"><ele>42.0</ele><time>2026-04-08T06:59:08.092Z</time></trkpt><trkpt lat="41.9322917" lon="12.519815"><ele>42.0</ele><time>2026-04-08T06:59:10.093Z</time></trkpt><trkpt lat="41.9323617" lon="12.5198917"><ele>42.0</ele><time>2026-04-08T06:59:12.092Z</time></trkpt><trkpt lat="41.9324167" lon="12.5199617"><ele>42.0</ele><time>2026-04-08T06:59:15.092Z</time></trkpt><trkpt lat="41.93248" lon="12.5200233"><ele>42.0</ele><time>2026-04-08T06:59:38.092Z</time></trkpt><trkpt lat="41.932545" lon="12.5200733"><ele>42.0</ele><time>2026-04-08T06:59:42.092Z</time></trkpt><trkpt lat="41.9326" lon="12.5201483"><ele>41.8</ele><time>2026-04-08T06:59:47.092Z</time></trkpt><trkpt lat="41.9326567" lon="12.5202133"><ele>41.6</ele><time>2026-04-08T06:59:49.092Z</time></trkpt><trkpt lat="41.9327467" lon="12.520305"><ele>41.4</ele><time>2026-04-08T06:59:51.092Z</time></trkpt><trkpt lat="41.9328433" lon="12.520395"><ele>41.199999999999996</ele><time>2026-04-08T06:59:53.092Z</time></trkpt><trkpt lat="41.9329383" lon="12.520485"><ele>41.0</ele><time>2026-04-08T06:59:55.093Z</time></trkpt><trkpt lat="41.93302" lon="12.5205583"><ele>41.83333333333333</ele><time>2026-04-08T06:59:57.092Z</time></trkpt><trkpt lat="41.9330833" lon="12.5206183"><ele>42.666666666666664</ele><time>2026-04-08T06:59:59.092Z</time></trkpt><trkpt lat="41.93314" lon="12.5206683"><ele>43.5</ele><time>2026-04-08T07:00:02.092Z</time></trkpt><trkpt lat="41.9332267" lon="12.5207617"><ele>44.333333333333336</ele><time>2026-04-08T07:01:43.093Z</time></trkpt><trkpt lat="41.9332867" lon="12.52085"><ele>45.16666666666667</ele><time>2026-04-08T07:01:46.092Z</time></trkpt><trkpt lat="41.933365" lon="12.5209417"><ele>46.0</ele><time>2026-04-08T07:01:48.092Z</time></trkpt><trkpt lat="41.9334467" lon="12.5210383"><ele>43.66666666666667</ele><time>2026-04-08T07:01:50.093Z</time></trkpt><trkpt lat="41.9335383" lon="12.5211333"><ele>41.333333333333336</ele><time>2026-04-08T07:01:52.092Z</time></trkpt><trkpt lat="41.9335933" lon="12.521195"><ele>39.0</ele><time>2026-04-08T07:01:53.092Z</time></trkpt><trkpt lat="41.9336467" lon="12.5212517"><ele>36.666666666666664</ele><time>2026-04-08T07:01:54.092Z</time></trkpt><trkpt lat="41.933705" lon="12.52131"><ele>34.33333333333333</ele><time>2026-04-08T07:01:55.092Z</time></trkpt><trkpt lat="41.93376" lon="12.52138"><ele>32.0</ele><time>2026-04-08T07:01:56.092Z</time></trkpt><trkpt lat="41.933815" lon="12.52146"><ele>31.499999999999996</ele><time>2026-04-08T07:01:57.092Z</time></trkpt><trkpt lat="41.9338683" lon="12.52154"><ele>31.0</ele><time>2026-04-08T07:01:58.092Z</time></trkpt><trkpt lat="41.9339183" lon="12.5216133"><ele>30.5</ele><time>2026-04-08T07:01:59.092Z</time></trkpt><trkpt lat="41.9339633" lon="12.5216883"><ele>30.0</ele><time>2026-04-08T07:02:00.092Z</time></trkpt><trkpt lat="41.934015" lon="12.52176"><ele>29.499999999999996</ele><time>2026-04-08T07:02:01.092Z</time></trkpt><trkpt lat="41.9340717" lon="12.5218367"><ele>29.0</ele><time>2026-04-08T07:02:02.092Z</time></trkpt><trkpt lat="41.934135" lon="12.5219217"><ele>29.0</ele><time>2026-04-08T07:02:03.092Z</time></trkpt><trkpt lat="41.934195" lon="12.5220067"><ele>29.0</ele><time>2026-04-08T07:02:04.092Z</time></trkpt><trkpt lat="41.9342683" lon="12.5220933"><ele>29.0</ele><time>2026-04-08T07:02:05.092Z</time></trkpt><trkpt lat="41.9343483" lon="12.522185"><ele>29.0</ele><time>2026-04-08T07:02:06.092Z</time></trkpt><trkpt lat="41.9344283" lon="12.52228"><ele>29.0</ele><time>2026-04-08T07:02:07.093Z</time></trkpt><trkpt lat="41.9345117" lon="12.5223733"><ele>28.4</ele><time>2026-04-08T07:02:08.092Z</time></trkpt><trkpt lat="41.9345933" lon="12.5224717"><ele>27.799999999999997</ele><time>2026-04-08T07:02:09.092Z</time></trkpt><trkpt lat="41.9346733" lon="12.5225583"><ele>27.200000000000003</ele><time>2026-04-08T07:02:10.093Z</time></trkpt><trkpt lat="41.93475" lon="12.5226383"><ele>26.6</ele><time>2026-04-08T07:02:11.093Z</time></trkpt><trkpt lat="41.9348317" lon="12.5227317"><ele>26.0</ele><time>2026-04-08T07:02:12.092Z</time></trkpt><trkpt lat="41.9349133" lon="12.5228283"><ele>25.8</ele><time>2026-04-08T07:02:13.092Z</time></trkpt><trkpt lat="41.9350017" lon="12.52292"><ele>25.6</ele><time>2026-04-08T07:02:14.092Z</time></trkpt><trkpt lat="41.9350883" lon="12.52301"><ele>25.4</ele><time>2026-04-08T07:02:15.092Z</time></trkpt><trkpt lat="41.9351483" lon="12.5230933"><ele>25.2</ele><time>2026-04-08T07:02:16.092Z</time></trkpt><trkpt lat="41.93522" lon="12.52319"><ele>25.0</ele><time>2026-04-08T07:02:17.092Z</time></trkpt><trkpt lat="41.9352867" lon="12.5232883"><ele>24.8</ele><time>2026-04-08T07:02:18.093Z</time></trkpt><trkpt lat="41.93535" lon="12.5234033"><ele>24.6</ele><time>2026-04-08T07:02:19.092Z</time></trkpt><trkpt lat="41.9354133" lon="12.5235017"><ele>24.4</ele><time>2026-04-08T07:02:20.092Z</time></trkpt><trkpt lat="41.9354833" lon="12.52359"><ele>24.2</ele><time>2026-04-08T07:02:21.092Z</time></trkpt><trkpt lat="41.9355633" lon="12.5236783"><ele>24.0</ele><time>2026-04-08T07:02:22.092Z</time></trkpt><trkpt lat="41.9356433" lon="12.5237683"><ele>24.0</ele><time>2026-04-08T07:02:23.092Z</time></trkpt><trkpt lat="41.9357217" lon="12.5238633"><ele>24.0</ele><time>2026-04-08T07:02:24.092Z</time></trkpt><trkpt lat="41.9358017" lon="12.5239533"><ele>24.0</ele><time>2026-04-08T07:02:25.092Z</time></trkpt><trkpt lat="41.935885" lon="12.5240467"><ele>24.0</ele><time>2026-04-08T07:02:26.092Z</time></trkpt><trkpt lat="41.9359567" lon="12.5241267"><ele>24.0</ele><time>2026-04-08T07:02:27.093Z</time></trkpt><trkpt lat="41.9360383" lon="12.5242283"><ele>24.0</ele><time>2026-04-08T07:02:28.093Z</time></trkpt><trkpt lat="41.9361083" lon="12.5243383"><ele>24.0</ele><time>2026-04-08T07:02:29.093Z</time></trkpt><trkpt lat="41.936185" lon="12.5244217"><ele>24.0</ele><time>2026-04-08T07:02:30.092Z</time></trkpt><trkpt lat="41.9362567" lon="12.5245"><ele>24.0</ele><time>2026-04-08T07:02:31.092Z</time></trkpt><trkpt lat="41.9363317" lon="12.52458"><ele>24.0</ele><time>2026-04-08T07:02:32.092Z</time></trkpt><trkpt lat="41.936405" lon="12.52466"><ele>24.0</ele><time>2026-04-08T07:02:33.092Z</time></trkpt><trkpt lat="41.936475" lon="12.524745"><ele>24.0</ele><time>2026-04-08T07:02:34.092Z</time></trkpt><trkpt lat="41.9365433" lon="12.5248117"><ele>24.0</ele><time>2026-04-08T07:02:35.092Z</time></trkpt><trkpt lat="41.936625" lon="12.52491"><ele>24.0</ele><time>2026-04-08T07:02:36.092Z</time></trkpt><trkpt lat="41.9366983" lon="12.5249917"><ele>24.0</ele><time>2026-04-08T07:02:37.092Z</time></trkpt><trkpt lat="41.9367733" lon="12.5250817"><ele>24.0</ele><time>2026-04-08T07:02:38.093Z</time></trkpt><trkpt lat="41.9368467" lon="12.5251633"><ele>24.0</ele><time>2026-04-08T07:02:39.093Z</time></trkpt><trkpt lat="41.9369217" lon="12.525255"><ele>24.0</ele><time>2026-04-08T07:02:40.092Z</time></trkpt><trkpt lat="41.9370083" lon="12.52535"><ele>24.0</ele><time>2026-04-08T07:02:41.092Z</time></trkpt><trkpt lat="41.9371133" lon="12.52545"><ele>24.0</ele><time>2026-04-08T07:02:42.092Z</time></trkpt><trkpt lat="41.9372067" lon="12.525555"><ele>24.0</ele><time>2026-04-08T07:02:43.092Z</time></trkpt><trkpt lat="41.9372917" lon="12.5256583"><ele>24.0</ele><time>2026-04-08T07:02:44.092Z</time></trkpt><trkpt lat="41.9373883" lon="12.52576"><ele>24.0</ele><time>2026-04-08T07:02:45.092Z</time></trkpt><trkpt lat="41.9374817" lon="12.5258567"><ele>24.0</ele><time>2026-04-08T07:02:46.092Z</time></trkpt><trkpt lat="41.9375683" lon="12.5259583"><ele>24.25</ele><time>2026-04-08T07:02:47.093Z</time></trkpt><trkpt lat="41.9376517" lon="12.52606"><ele>24.5</ele><time>2026-04-08T07:02:48.092Z</time></trkpt><trkpt lat="41.9377417" lon="12.5261683"><ele>24.75</ele><time>2026-04-08T07:02:49.093Z</time></trkpt><trkpt lat="41.9378267" lon="12.5262717"><ele>25.0</ele><time>2026-04-08T07:02:50.092Z</time></trkpt><trkpt lat="41.93791" lon="12.5263667"><ele>25.0</ele><time>2026-04-08T07:02:51.092Z</time></trkpt><trkpt lat="41.9379917" lon="12.5264617"><ele>25.0</ele><time>2026-04-08T07:02:52.092Z</time></trkpt><trkpt lat="41.93808" lon="12.526555"><ele>25.0</ele><time>2026-04-08T07:02:53.092Z</time></trkpt><trkpt lat="41.938165" lon="12.526645"><ele>25.0</ele><time>2026-04-08T07:02:54.092Z</time></trkpt><trkpt lat="41.9382517" lon="12.526735"><ele>25.0</ele><time>2026-04-08T07:02:55.092Z</time></trkpt><trkpt lat="41.93833" lon="12.5268267"><ele>25.8</ele><time>2026-04-08T07:02:56.092Z</time></trkpt><trkpt lat="41.938405" lon="12.5269267"><ele>26.6</ele><time>2026-04-08T07:02:57.092Z</time></trkpt><trkpt lat="41.938485" lon="12.5270083"><ele>27.4</ele><time>2026-04-08T07:02:58.092Z</time></trkpt><trkpt lat="41.9385483" lon="12.5271"><ele>28.2</ele><time>2026-04-08T07:02:59.092Z</time></trkpt><trkpt lat="41.938615" lon="12.527175"><ele>29.0</ele><time>2026-04-08T07:03:00.092Z</time></trkpt><trkpt lat="41.93868" lon="12.5272517"><ele>29.0</ele><time>2026-04-08T07:03:01.092Z</time></trkpt><trkpt lat="41.9387433" lon="12.5273283"><ele>29.0</ele><time>2026-04-08T07:03:02.092Z</time></trkpt><trkpt lat="41.9387933" lon="12.5274"><ele>29.0</ele><time>2026-04-08T07:03:03.092Z</time></trkpt><trkpt lat="41.93884" lon="12.5274683"><ele>29.0</ele><time>2026-04-08T07:03:04.092Z</time></trkpt><trkpt lat="41.938935" lon="12.52757"><ele>29.0</ele><time>2026-04-08T07:03:06.092Z</time></trkpt><trkpt lat="41.939035" lon="12.52765"><ele>29.0</ele><time>2026-04-08T07:03:08.092Z</time></trkpt><trkpt lat="41.9391183" lon="12.5277283"><ele>29.0</ele><time>2026-04-08T07:03:10.092Z</time></trkpt><trkpt lat="41.93918" lon="12.5278383"><ele>29.0</ele><time>2026-04-08T07:03:12.092Z</time></trkpt><trkpt lat="41.9392333" lon="12.5279017"><ele>29.0</ele><time>2026-04-08T07:03:16.093Z</time></trkpt><trkpt lat="41.9392683" lon="12.5280133"><ele>29.0</ele><time>2026-04-08T07:03:42.093Z</time></trkpt><trkpt lat="41.9393033" lon="12.5281233"><ele>29.333333333333332</ele><time>2026-04-08T07:03:46.092Z</time></trkpt><trkpt lat="41.9393283" lon="12.52821"><ele>29.666666666666664</ele><time>2026-04-08T07:03:48.092Z</time></trkpt><trkpt lat="41.9393517" lon="12.528315"><ele>30.0</ele><time>2026-04-08T07:03:50.092Z</time></trkpt><trkpt lat="41.9393733" lon="12.5284333"><ele>30.333333333333336</ele><time>2026-04-08T07:03:52.092Z</time></trkpt><trkpt lat="41.9393733" lon="12.5285517"><ele>30.666666666666668</ele><time>2026-04-08T07:03:54.092Z</time></trkpt><trkpt lat="41.9393783" lon="12.5286733"><ele>31.0</ele><time>2026-04-08T07:03:56.092Z</time></trkpt><trkpt lat="41.9393783" lon="12.528775"><ele>31.666666666666668</ele><time>2026-04-08T07:03:58.093Z</time></trkpt><trkpt lat="41.9393883" lon="12.5288683"><ele>32.333333333333336</ele><time>2026-04-08T07:04:01.092Z</time></trkpt><trkpt lat="41.9393783" lon="12.528955"><ele>33.0</ele><time>2026-04-08T07:04:05.092Z</time></trkpt><trkpt lat="41.93939" lon="12.5291233"><ele>33.666666666666664</ele><time>2026-04-08T07:04:18.093Z</time></trkpt><trkpt lat="41.93939" lon="12.5292233"><ele>34.33333333333333</ele><time>2026-04-08T07:04:21.093Z</time></trkpt><trkpt lat="41.9394267" lon="12.5293333"><ele>35.0</ele><time>2026-04-08T07:04:24.092Z</time></trkpt><trkpt lat="41.93949" lon="12.52938"><ele>35.0</ele><time>2026-04-08T07:04:26.092Z</time></trkpt><trkpt lat="41.9395717" lon="12.5293767"><ele>35.0</ele><time>2026-04-08T07:04:28.093Z</time></trkpt><trkpt lat="41.93967" lon="12.5293667"><ele>35.0</ele><time>2026-04-08T07:04:30.092Z</time></trkpt><trkpt lat="41.9397667" lon="12.52935"><ele>35.0</ele><time>2026-04-08T07:04:32.091Z</time></trkpt><trkpt lat="41.9398533" lon="12.5293317"><ele>35.0</ele><time>2026-04-08T07:04:34.091Z</time></trkpt><trkpt lat="41.9399267" lon="12.5293233"><ele>35.0</ele><time>2026-04-08T07:04:36.091Z</time></trkpt><trkpt lat="41.9400117" lon="12.5293033"><ele>35.33333333333333</ele><time>2026-04-08T07:04:39.091Z</time></trkpt><trkpt lat="41.9401" lon="12.5293117"><ele>35.666666666666664</ele><time>2026-04-08T07:04:55.091Z</time></trkpt><trkpt lat="41.94017" lon="12.5293117"><ele>36.0</ele><time>2026-04-08T07:04:57.091Z</time></trkpt><trkpt lat="41.94025" lon="12.5292967"><ele>36.333333333333336</ele><time>2026-04-08T07:04:59.091Z</time></trkpt><trkpt lat="41.9403233" lon="12.5292783"><ele>36.66666666666667</ele><time>2026-04-08T07:05:01.091Z</time></trkpt><trkpt lat="41.940385" lon="12.5292533"><ele>37.0</ele><time>2026-04-08T07:05:04.091Z</time></trkpt><trkpt lat="41.94048" lon="12.529235"><ele>37.0</ele><time>2026-04-08T07:05:07.091Z</time></trkpt><trkpt lat="41.940545" lon="12.5291817"><ele>37.0</ele><time>2026-04-08T07:05:09.091Z</time></trkpt><trkpt lat="41.9405983" lon="12.5290933"><ele>37.0</ele><time>2026-04-08T07:05:11.091Z</time></trkpt><trkpt lat="41.9406517" lon="12.5290183"><ele>37.0</ele><time>2026-04-08T07:05:13.091Z</time></trkpt><trkpt lat="41.9407017" lon="12.5289367"><ele>37.0</ele><time>2026-04-08T07:05:15.091Z</time></trkpt><trkpt lat="41.9407483" lon="12.5288433"><ele>37.0</ele><time>2026-04-08T07:05:17.091Z</time></trkpt><trkpt lat="41.9407917" lon="12.5287717"><ele>37.0</ele><time>2026-04-08T07:05:19.092Z</time></trkpt><trkpt lat="41.9408533" lon="12.52865"><ele>37.0</ele><time>2026-04-08T07:06:00.091Z</time></trkpt><trkpt lat="41.9409117" lon="12.5285633"><ele>37.0</ele><time>2026-04-08T07:06:02.092Z</time></trkpt><trkpt lat="41.9409783" lon="12.5284667"><ele>37.0</ele><time>2026-04-08T07:06:04.091Z</time></trkpt><trkpt lat="41.9410617" lon="12.5283583"><ele>37.0</ele><time>2026-04-08T07:06:06.091Z</time></trkpt><trkpt lat="41.9410933" lon="12.528285"><ele>37.0</ele><time>2026-04-08T07:06:07.091Z</time></trkpt><trkpt lat="41.9411367" lon="12.528215"><ele>37.0</ele><time>2026-04-08T07:06:08.091Z</time></trkpt><trkpt lat="41.94118" lon="12.5281317"><ele>37.0</ele><time>2026-04-08T07:06:09.091Z</time></trkpt><trkpt lat="41.9412333" lon="12.5280533"><ele>37.0</ele><time>2026-04-08T07:06:10.092Z</time></trkpt><trkpt lat="41.9412817" lon="12.52798"><ele>37.0</ele><time>2026-04-08T07:06:11.092Z</time></trkpt><trkpt lat="41.941325" lon="12.5279117"><ele>37.0</ele><time>2026-04-08T07:06:12.091Z</time></trkpt><trkpt lat="41.941365" lon="12.527845"><ele>37.0</ele><time>2026-04-08T07:06:13.091Z</time></trkpt><trkpt lat="41.94144" lon="12.527745"><ele>36.800000000000004</ele><time>2026-04-08T07:06:15.091Z</time></trkpt><trkpt lat="41.9415067" lon="12.5276817"><ele>36.6</ele><time>2026-04-08T07:06:17.091Z</time></trkpt><trkpt lat="41.94161" lon="12.52754"><ele>36.400000000000006</ele><time>2026-04-08T07:06:33.091Z</time></trkpt><trkpt lat="41.9416617" lon="12.5274367"><ele>36.2</ele><time>2026-04-08T07:06:36.091Z</time></trkpt><trkpt lat="41.941715" lon="12.5273367"><ele>36.0</ele><time>2026-04-08T07:06:38.09Z</time></trkpt><trkpt lat="41.941765" lon="12.5272433"><ele>36.0</ele><time>2026-04-08T07:06:40.091Z</time></trkpt><trkpt lat="41.9418283" lon="12.52713"><ele>36.0</ele><time>2026-04-08T07:06:42.091Z</time></trkpt><trkpt lat="41.9418933" lon="12.5270183"><ele>36.0</ele><time>2026-04-08T07:06:44.091Z</time></trkpt><trkpt lat="41.941945" lon="12.5269133"><ele>36.0</ele><time>2026-04-08T07:06:46.091Z</time></trkpt><trkpt lat="41.9419983" lon="12.5267833"><ele>36.0</ele><time>2026-04-08T07:06:48.091Z</time></trkpt><trkpt lat="41.9420817" lon="12.5266467"><ele>36.0</ele><time>2026-04-08T07:06:50.091Z</time></trkpt><trkpt lat="41.9421233" lon="12.5265767"><ele>36.0</ele><time>2026-04-08T07:06:51.091Z</time></trkpt><trkpt lat="41.9421617" lon="12.5265083"><ele>36.0</ele><time>2026-04-08T07:06:52.091Z</time></trkpt><trkpt lat="41.9422017" lon="12.5264383"><ele>36.0</ele><time>2026-04-08T07:06:53.091Z</time></trkpt><trkpt lat="41.9422717" lon="12.52633"><ele>36.0</ele><time>2026-04-08T07:06:55.091Z</time></trkpt><trkpt lat="41.942315" lon="12.526245"><ele>36.0</ele><time>2026-04-08T07:06:57.092Z</time></trkpt><trkpt lat="41.9423667" lon="12.52618"><ele>36.166666666666664</ele><time>2026-04-08T07:07:00.091Z</time></trkpt><trkpt lat="41.942435" lon="12.5260867"><ele>36.333333333333336</ele><time>2026-04-08T07:07:07.091Z</time></trkpt><trkpt lat="41.94249" lon="12.5260117"><ele>36.5</ele><time>2026-04-08T07:07:09.092Z</time></trkpt><trkpt lat="41.9425367" lon="12.5259233"><ele>36.66666666666667</ele><time>2026-04-08T07:07:11.091Z</time></trkpt><trkpt lat="41.942555" lon="12.5258333"><ele>36.833333333333336</ele><time>2026-04-08T07:07:13.092Z</time></trkpt><trkpt lat="41.942535" lon="12.525725"><ele>37.0</ele><time>2026-04-08T07:07:15.092Z</time></trkpt><trkpt lat="41.9424717" lon="12.5256333"><ele>37.0</ele><time>2026-04-08T07:07:17.091Z</time></trkpt><trkpt lat="41.942395" lon="12.5255467"><ele>37.0</ele><time>2026-04-08T07:07:19.091Z</time></trkpt><trkpt lat="41.9422983" lon="12.52547"><ele>37.0</ele><time>2026-04-08T07:07:21.091Z</time></trkpt><trkpt lat="41.942245" lon="12.5254183"><ele>37.0</ele><time>2026-04-08T07:07:22.091Z</time></trkpt><trkpt lat="41.9421883" lon="12.52535"><ele>37.0</ele><time>2026-04-08T07:07:23.091Z</time></trkpt><trkpt lat="41.9421333" lon="12.5252833"><ele>37.0</ele><time>2026-04-08T07:07:24.091Z</time></trkpt><trkpt lat="41.9420783" lon="12.5252283"><ele>36.800000000000004</ele><time>2026-04-08T07:07:25.091Z</time></trkpt><trkpt lat="41.9419867" lon="12.5251417"><ele>36.6</ele><time>2026-04-08T07:07:27.092Z</time></trkpt><trkpt lat="41.9419117" lon="12.52506"><ele>36.400000000000006</ele><time>2026-04-08T07:07:29.091Z</time></trkpt><trkpt lat="41.94185" lon="12.5249717"><ele>36.2</ele><time>2026-04-08T07:07:31.091Z</time></trkpt><trkpt lat="41.9418133" lon="12.5248867"><ele>36.0</ele><time>2026-04-08T07:07:33.091Z</time></trkpt><trkpt lat="41.9417483" lon="12.5248167"><ele>35.666666666666664</ele><time>2026-04-08T07:07:36.092Z</time></trkpt><trkpt lat="41.941685" lon="12.5247433"><ele>35.333333333333336</ele><time>2026-04-08T07:07:38.092Z</time></trkpt><trkpt lat="41.9416283" lon="12.52466"><ele>35.0</ele><time>2026-04-08T07:07:40.091Z</time></trkpt><trkpt lat="41.9415567" lon="12.52461"><ele>34.66666666666667</ele><time>2026-04-08T07:07:43.091Z</time></trkpt><trkpt lat="41.9414983" lon="12.5245717"><ele>34.333333333333336</ele><time>2026-04-08T07:08:00.091Z</time></trkpt><trkpt lat="41.9414417" lon="12.5245217"><ele>34.0</ele><time>2026-04-08T07:08:02.091Z</time></trkpt><trkpt lat="41.9413783" lon="12.52445"><ele>33.5</ele><time>2026-04-08T07:08:04.091Z</time></trkpt><trkpt lat="41.9413183" lon="12.5243783"><ele>33.0</ele><time>2026-04-08T07:08:06.091Z</time></trkpt><trkpt lat="41.9412583" lon="12.52431"><ele>32.5</ele><time>2026-04-08T07:08:08.091Z</time></trkpt><trkpt lat="41.941175" lon="12.5242267"><ele>32.0</ele><time>2026-04-08T07:08:10.091Z</time></trkpt><trkpt lat="41.9410983" lon="12.524175"><ele>31.500000000000004</ele><time>2026-04-08T07:08:12.091Z</time></trkpt><trkpt lat="41.9410417" lon="12.524135"><ele>31.0</ele><time>2026-04-08T07:08:15.091Z</time></trkpt><trkpt lat="41.94099" lon="12.524085"><ele>31.000000000000004</ele><time>2026-04-08T07:08:17.092Z</time></trkpt><trkpt lat="41.9409317" lon="12.524035"><ele>31.0</ele><time>2026-04-08T07:08:19.091Z</time></trkpt><trkpt lat="41.9408783" lon="12.5239833"><ele>31.0</ele><time>2026-04-08T07:08:21.091Z</time></trkpt><trkpt lat="41.9408517" lon="12.523865"><ele>31.0</ele><time>2026-04-08T07:08:24.091Z</time></trkpt><trkpt lat="41.9408733" lon="12.5237317"><ele>31.000000000000004</ele><time>2026-04-08T07:08:26.092Z</time></trkpt><trkpt lat="41.9409117" lon="12.52366"><ele>31.0</ele><time>2026-04-08T07:08:27.092Z</time></trkpt><trkpt lat="41.9409567" lon="12.5235833"><ele>31.333333333333336</ele><time>2026-04-08T07:08:28.092Z</time></trkpt><trkpt lat="41.941005" lon="12.5235033"><ele>31.666666666666668</ele><time>2026-04-08T07:08:29.091Z</time></trkpt><trkpt lat="41.9410617" lon="12.5234283"><ele>32.0</ele><time>2026-04-08T07:08:30.091Z</time></trkpt><trkpt lat="41.9411217" lon="12.52335"><ele>32.333333333333336</ele><time>2026-04-08T07:08:31.091Z</time></trkpt><trkpt lat="41.9411817" lon="12.52327"><ele>32.666666666666664</ele><time>2026-04-08T07:08:32.091Z</time></trkpt><trkpt lat="41.94124" lon="12.5231867"><ele>33.0</ele><time>2026-04-08T07:08:33.091Z</time></trkpt><trkpt lat="41.9413017" lon="12.5231117"><ele>33.0</ele><time>2026-04-08T07:08:34.092Z</time></trkpt><trkpt lat="41.94136" lon="12.5230333"><ele>33.0</ele><time>2026-04-08T07:08:35.091Z</time></trkpt><trkpt lat="41.9414183" lon="12.5229633"><ele>33.0</ele><time>2026-04-08T07:08:36.091Z</time></trkpt><trkpt lat="41.941465" lon="12.5228917"><ele>33.0</ele><time>2026-04-08T07:08:37.091Z</time></trkpt><trkpt lat="41.9415067" lon="12.522825"><ele>33.0</ele><time>2026-04-08T07:08:38.091Z</time></trkpt><trkpt lat="41.941575" lon="12.5227283"><ele>33.0</ele><time>2026-04-08T07:08:40.091Z</time></trkpt><trkpt lat="41.9416233" lon="12.5226567"><ele>32.8</ele><time>2026-04-08T07:08:42.091Z</time></trkpt><trkpt lat="41.9416683" lon="12.5224783"><ele>32.599999999999994</ele><time>2026-04-08T07:08:58.091Z</time></trkpt><trkpt lat="41.9417233" lon="12.5223933"><ele>32.400000000000006</ele><time>2026-04-08T07:09:00.091Z</time></trkpt><trkpt lat="41.941775" lon="12.5222983"><ele>32.2</ele><time>2026-04-08T07:09:02.091Z</time></trkpt><trkpt lat="41.9418233" lon="12.522215"><ele>32.0</ele><time>2026-04-08T07:09:04.092Z</time></trkpt><trkpt lat="41.9419" lon="12.5220367"><ele>33.2</ele><time>2026-04-08T07:09:20.091Z</time></trkpt><trkpt lat="41.9419567" lon="12.52188"><ele>34.400000000000006</ele><time>2026-04-08T07:09:39.091Z</time></trkpt><trkpt lat="41.9418917" lon="12.5218217"><ele>35.599999999999994</ele><time>2026-04-08T07:09:41.091Z</time></trkpt><trkpt lat="41.94182" lon="12.521775"><ele>36.8</ele><time>2026-04-08T07:09:43.092Z</time></trkpt><trkpt lat="41.941765" lon="12.521715"><ele>38.0</ele><time>2026-04-08T07:09:45.092Z</time></trkpt><trkpt lat="41.941735" lon="12.5215817"><ele>38.0</ele><time>2026-04-08T07:09:47.091Z</time></trkpt><trkpt lat="41.9417267" lon="12.521485"><ele>38.0</ele><time>2026-04-08T07:09:48.091Z</time></trkpt><trkpt lat="41.9417317" lon="12.5213633"><ele>38.0</ele><time>2026-04-08T07:09:49.092Z</time></trkpt><trkpt lat="41.9417283" lon="12.5212317"><ele>38.0</ele><time>2026-04-08T07:09:50.091Z</time></trkpt><trkpt lat="41.9417367" lon="12.5210967"><ele>38.0</ele><time>2026-04-08T07:09:51.091Z</time></trkpt><trkpt lat="41.9417317" lon="12.5209567"><ele>37.199999999999996</ele><time>2026-04-08T07:09:52.091Z</time></trkpt><trkpt lat="41.94173" lon="12.520825"><ele>36.4</ele><time>2026-04-08T07:09:53.091Z</time></trkpt><trkpt lat="41.9417267" lon="12.5206883"><ele>35.599999999999994</ele><time>2026-04-08T07:09:54.091Z</time></trkpt><trkpt lat="41.941725" lon="12.5205433"><ele>34.8</ele><time>2026-04-08T07:09:55.091Z</time></trkpt><trkpt lat="41.94172" lon="12.5203983"><ele>34.0</ele><time>2026-04-08T07:09:56.091Z</time></trkpt><trkpt lat="41.9417233" lon="12.5202483"><ele>33.4</ele><time>2026-04-08T07:09:57.091Z</time></trkpt><trkpt lat="41.94172" lon="12.5200983"><ele>32.8</ele><time>2026-04-08T07:09:58.091Z</time></trkpt><trkpt lat="41.9417183" lon="12.51995"><ele>32.2</ele><time>2026-04-08T07:09:59.091Z</time></trkpt><trkpt lat="41.941715" lon="12.5198017"><ele>31.6</ele><time>2026-04-08T07:10:00.091Z</time></trkpt><trkpt lat="41.941715" lon="12.519655"><ele>31.0</ele><time>2026-04-08T07:10:01.091Z</time></trkpt><trkpt lat="41.9417" lon="12.5195067"><ele>30.6</ele><time>2026-04-08T07:10:02.091Z</time></trkpt><trkpt lat="41.9416883" lon="12.519365"><ele>30.200000000000003</ele><time>2026-04-08T07:10:03.091Z</time></trkpt><trkpt lat="41.941675" lon="12.5192217"><ele>29.799999999999997</ele><time>2026-04-08T07:10:04.091Z</time></trkpt><trkpt lat="41.9416483" lon="12.51908"><ele>29.4</ele><time>2026-04-08T07:10:05.091Z</time></trkpt><trkpt lat="41.9416417" lon="12.51894"><ele>29.0</ele><time>2026-04-08T07:10:06.091Z</time></trkpt><trkpt lat="41.941635" lon="12.5188"><ele>28.4</ele><time>2026-04-08T07:10:07.091Z</time></trkpt><trkpt lat="41.9416317" lon="12.5186717"><ele>27.799999999999997</ele><time>2026-04-08T07:10:08.092Z</time></trkpt><trkpt lat="41.9416283" lon="12.5185383"><ele>27.200000000000003</ele><time>2026-04-08T07:10:09.091Z</time></trkpt><trkpt lat="41.9416367" lon="12.51841"><ele>26.6</ele><time>2026-04-08T07:10:10.091Z</time></trkpt><trkpt lat="41.9416417" lon="12.5182933"><ele>26.0</ele><time>2026-04-08T07:10:11.092Z</time></trkpt><trkpt lat="41.9416617" lon="12.5181717"><ele>25.999999999999996</ele><time>2026-04-08T07:10:12.091Z</time></trkpt><trkpt lat="41.9416833" lon="12.518065"><ele>26.0</ele><time>2026-04-08T07:10:13.092Z</time></trkpt><trkpt lat="41.9416917" lon="12.5179767"><ele>26.0</ele><time>2026-04-08T07:10:14.091Z</time></trkpt><trkpt lat="41.9417267" lon="12.5178533"><ele>26.0</ele><time>2026-04-08T07:10:16.091Z</time></trkpt><trkpt lat="41.9417717" lon="12.517705"><ele>25.999999999999996</ele><time>2026-04-08T07:10:18.091Z</time></trkpt><trkpt lat="41.9417967" lon="12.51762"><ele>26.0</ele><time>2026-04-08T07:10:19.091Z</time></trkpt><trkpt lat="41.9418283" lon="12.51753"><ele>25.999999999999996</ele><time>2026-04-08T07:10:20.091Z</time></trkpt><trkpt lat="41.9418767" lon="12.51744"><ele>26.0</ele><time>2026-04-08T07:10:21.092Z</time></trkpt><trkpt lat="41.9419183" lon="12.5173483"><ele>26.0</ele><time>2026-04-08T07:10:22.092Z</time></trkpt><trkpt lat="41.941965" lon="12.5172583"><ele>26.0</ele><time>2026-04-08T07:10:23.091Z</time></trkpt><trkpt lat="41.9420083" lon="12.5171633"><ele>25.999999999999996</ele><time>2026-04-08T07:10:24.092Z</time></trkpt><trkpt lat="41.9420517" lon="12.5170683"><ele>26.0</ele><time>2026-04-08T07:10:25.091Z</time></trkpt><trkpt lat="41.94209" lon="12.5169817"><ele>25.999999999999996</ele><time>2026-04-08T07:10:26.091Z</time></trkpt><trkpt lat="41.9421367" lon="12.516905"><ele>26.0</ele><time>2026-04-08T07:10:27.091Z</time></trkpt><trkpt lat="41.94218" lon="12.5168383"><ele>26.0</ele><time>2026-04-08T07:10:28.091Z</time></trkpt><trkpt lat="41.942225" lon="12.5167733"><ele>26.0</ele><time>2026-04-08T07:10:29.092Z</time></trkpt><trkpt lat="41.9422717" lon="12.5167117"><ele>25.999999999999996</ele><time>2026-04-08T07:10:30.091Z</time></trkpt><trkpt lat="41.94234" lon="12.5166033"><ele>26.0</ele><time>2026-04-08T07:10:32.091Z</time></trkpt><trkpt lat="41.9424133" lon="12.5164967"><ele>26.0</ele><time>2026-04-08T07:10:34.091Z</time></trkpt><trkpt lat="41.9424783" lon="12.5163783"><ele>26.0</ele><time>2026-04-08T07:10:36.091Z</time></trkpt><trkpt lat="41.942535" lon="12.5162767"><ele>26.0</ele><time>2026-04-08T07:10:38.091Z</time></trkpt><trkpt lat="41.94262" lon="12.5162183"><ele>26.0</ele><time>2026-04-08T07:10:40.09Z</time></trkpt><trkpt lat="41.9427967" lon="12.5161017"><ele>29.0</ele><time>2026-04-08T07:10:45.09Z</time></trkpt><trkpt lat="41.94284" lon="12.5160267"><ele>29.0</ele><time>2026-04-08T07:10:47.09Z</time></trkpt><trkpt lat="41.94288" lon="12.51596"><ele>29.0</ele><time>2026-04-08T07:10:49.09Z</time></trkpt></trkseg></trk></gpx>